<?xml version="1.0" encoding="UTF-8"?>
<gpx version="1.1" creator="https://www.www-youtrack-es.amenigma.com" xsi:schemaLocation="http://www.topografix.com/GPX/1/1 http://www.topografix.com/GPX/1/1/gpx.xsd http://www.garmin.com/xmlschemas/GpxExtensions/v3 http://www.garmin.com/xmlschemas/GpxExtensionsv3.xsd http://www.garmin.com/xmlschemas/TrackPointExtension/v1 http://www.garmin.com/xmlschemas/TrackPointExtensionv1.xsd" xmlns:gpxtpx="http://www.garmin.com/xmlschemas/TrackPointExtension/v1" xmlns:gpxx="http://www.garmin.com/xmlschemas/GpxExtensions/v3" xmlns:xsi="http://www.w3.org/2001/XMLSchema-instance">
  <metadata>
    <author>
      <name>Aitor Diego</name>
      <email id="aitormdg" domain="hotmail.com"/>
    </author>
    <link href="https://www.www-youtrack-es.amenigma.com">
      <text>YouTrack.es</text>
    </link>
    <time>2026-08-31T21:27:57Z</time>
  </metadata>
  <trk>
    <src>https://www.www-youtrack-es.amenigma.com</src>
    <link href="https://www.www-youtrack-es.amenigma.com/ruta/5369-pena-cabarga-completa">
      <text>YouTrack.es</text>
    </link>
    <trkseg>
      <trkpt lat="43.390940" lon="-3.814736">
        <ele>7.43</ele>
        <time>2019-02-03T08:10:39Z</time>
      </trkpt>
      <trkpt lat="43.390922" lon="-3.814762">
        <ele>7.46</ele>
        <time>2019-02-03T08:10:40Z</time>
      </trkpt>
      <trkpt lat="43.390906" lon="-3.814787">
        <ele>7.41</ele>
        <time>2019-02-03T08:10:41Z</time>
      </trkpt>
      <trkpt lat="43.390886" lon="-3.814809">
        <ele>7.61</ele>
        <time>2019-02-03T08:10:42Z</time>
      </trkpt>
      <trkpt lat="43.390867" lon="-3.814819">
        <ele>7.67</ele>
        <time>2019-02-03T08:10:43Z</time>
      </trkpt>
      <trkpt lat="43.390776" lon="-3.814848">
        <ele>7.83</ele>
        <time>2019-02-03T08:10:47Z</time>
      </trkpt>
      <trkpt lat="43.390749" lon="-3.814924">
        <ele>8.01</ele>
        <time>2019-02-03T08:10:49Z</time>
      </trkpt>
      <trkpt lat="43.390739" lon="-3.814948">
        <ele>8.08</ele>
        <time>2019-02-03T08:10:50Z</time>
      </trkpt>
      <trkpt lat="43.390731" lon="-3.814977">
        <ele>8.05</ele>
        <time>2019-02-03T08:10:51Z</time>
      </trkpt>
      <trkpt lat="43.390719" lon="-3.815007">
        <ele>8.09</ele>
        <time>2019-02-03T08:10:52Z</time>
      </trkpt>
      <trkpt lat="43.390684" lon="-3.815047">
        <ele>7.83</ele>
        <time>2019-02-03T08:10:54Z</time>
      </trkpt>
      <trkpt lat="43.390578" lon="-3.815031">
        <ele>7.89</ele>
        <time>2019-02-03T08:10:59Z</time>
      </trkpt>
      <trkpt lat="43.390476" lon="-3.814977">
        <ele>7.69</ele>
        <time>2019-02-03T08:11:04Z</time>
      </trkpt>
      <trkpt lat="43.390412" lon="-3.814861">
        <ele>7.81</ele>
        <time>2019-02-03T08:11:09Z</time>
      </trkpt>
      <trkpt lat="43.390374" lon="-3.814801">
        <ele>8.23</ele>
        <time>2019-02-03T08:11:12Z</time>
      </trkpt>
      <trkpt lat="43.390356" lon="-3.814781">
        <ele>8.21</ele>
        <time>2019-02-03T08:11:13Z</time>
      </trkpt>
      <trkpt lat="43.390291" lon="-3.814693">
        <ele>8.82</ele>
        <time>2019-02-03T08:11:17Z</time>
      </trkpt>
      <trkpt lat="43.390232" lon="-3.814595">
        <ele>9.07</ele>
        <time>2019-02-03T08:11:21Z</time>
      </trkpt>
      <trkpt lat="43.390176" lon="-3.814474">
        <ele>9.46</ele>
        <time>2019-02-03T08:11:26Z</time>
      </trkpt>
      <trkpt lat="43.390112" lon="-3.814355">
        <ele>9.44</ele>
        <time>2019-02-03T08:11:32Z</time>
      </trkpt>
      <trkpt lat="43.390044" lon="-3.814259">
        <ele>10.21</ele>
        <time>2019-02-03T08:11:37Z</time>
      </trkpt>
      <trkpt lat="43.389982" lon="-3.814152">
        <ele>11.06</ele>
        <time>2019-02-03T08:11:44Z</time>
      </trkpt>
      <trkpt lat="43.389905" lon="-3.814078">
        <ele>11.87</ele>
        <time>2019-02-03T08:11:50Z</time>
      </trkpt>
      <trkpt lat="43.389819" lon="-3.814022">
        <ele>13.02</ele>
        <time>2019-02-03T08:11:56Z</time>
      </trkpt>
      <trkpt lat="43.389737" lon="-3.813940">
        <ele>14.22</ele>
        <time>2019-02-03T08:12:02Z</time>
      </trkpt>
      <trkpt lat="43.389661" lon="-3.813869">
        <ele>15.26</ele>
        <time>2019-02-03T08:12:08Z</time>
      </trkpt>
      <trkpt lat="43.389571" lon="-3.813798">
        <ele>16.61</ele>
        <time>2019-02-03T08:12:15Z</time>
      </trkpt>
      <trkpt lat="43.389514" lon="-3.813741">
        <ele>17.41</ele>
        <time>2019-02-03T08:12:20Z</time>
      </trkpt>
      <trkpt lat="43.389492" lon="-3.813709">
        <ele>17.86</ele>
        <time>2019-02-03T08:12:22Z</time>
      </trkpt>
      <trkpt lat="43.389477" lon="-3.813692">
        <ele>18.09</ele>
        <time>2019-02-03T08:12:23Z</time>
      </trkpt>
      <trkpt lat="43.389463" lon="-3.813674">
        <ele>19.10</ele>
        <time>2019-02-03T08:12:25Z</time>
      </trkpt>
      <trkpt lat="43.389444" lon="-3.813639">
        <ele>19.43</ele>
        <time>2019-02-03T08:12:27Z</time>
      </trkpt>
      <trkpt lat="43.389423" lon="-3.813599">
        <ele>20.04</ele>
        <time>2019-02-03T08:12:29Z</time>
      </trkpt>
      <trkpt lat="43.389406" lon="-3.813559">
        <ele>21.05</ele>
        <time>2019-02-03T08:12:31Z</time>
      </trkpt>
      <trkpt lat="43.389393" lon="-3.813523">
        <ele>22.45</ele>
        <time>2019-02-03T08:12:33Z</time>
      </trkpt>
      <trkpt lat="43.389379" lon="-3.813486">
        <ele>23.41</ele>
        <time>2019-02-03T08:12:35Z</time>
      </trkpt>
      <trkpt lat="43.389366" lon="-3.813445">
        <ele>24.26</ele>
        <time>2019-02-03T08:12:37Z</time>
      </trkpt>
      <trkpt lat="43.389356" lon="-3.813414">
        <ele>24.84</ele>
        <time>2019-02-03T08:12:39Z</time>
      </trkpt>
      <trkpt lat="43.389349" lon="-3.813386">
        <ele>25.62</ele>
        <time>2019-02-03T08:12:41Z</time>
      </trkpt>
      <trkpt lat="43.389340" lon="-3.813358">
        <ele>26.41</ele>
        <time>2019-02-03T08:12:43Z</time>
      </trkpt>
      <trkpt lat="43.389334" lon="-3.813331">
        <ele>27.48</ele>
        <time>2019-02-03T08:12:45Z</time>
      </trkpt>
      <trkpt lat="43.389324" lon="-3.813298">
        <ele>27.69</ele>
        <time>2019-02-03T08:12:47Z</time>
      </trkpt>
      <trkpt lat="43.389316" lon="-3.813265">
        <ele>28.25</ele>
        <time>2019-02-03T08:12:49Z</time>
      </trkpt>
      <trkpt lat="43.389308" lon="-3.813242">
        <ele>28.67</ele>
        <time>2019-02-03T08:12:51Z</time>
      </trkpt>
      <trkpt lat="43.389301" lon="-3.813202">
        <ele>29.06</ele>
        <time>2019-02-03T08:12:53Z</time>
      </trkpt>
      <trkpt lat="43.389280" lon="-3.813063">
        <ele>29.68</ele>
        <time>2019-02-03T08:13:00Z</time>
      </trkpt>
      <trkpt lat="43.389251" lon="-3.812924">
        <ele>30.46</ele>
        <time>2019-02-03T08:13:06Z</time>
      </trkpt>
      <trkpt lat="43.389251" lon="-3.812787">
        <ele>31.41</ele>
        <time>2019-02-03T08:13:12Z</time>
      </trkpt>
      <trkpt lat="43.389215" lon="-3.812656">
        <ele>32.42</ele>
        <time>2019-02-03T08:13:17Z</time>
      </trkpt>
      <trkpt lat="43.389182" lon="-3.812534">
        <ele>33.24</ele>
        <time>2019-02-03T08:13:22Z</time>
      </trkpt>
      <trkpt lat="43.389122" lon="-3.812419">
        <ele>34.60</ele>
        <time>2019-02-03T08:13:27Z</time>
      </trkpt>
      <trkpt lat="43.389103" lon="-3.812398">
        <ele>35.01</ele>
        <time>2019-02-03T08:13:28Z</time>
      </trkpt>
      <trkpt lat="43.389088" lon="-3.812379">
        <ele>35.06</ele>
        <time>2019-02-03T08:13:29Z</time>
      </trkpt>
      <trkpt lat="43.389073" lon="-3.812354">
        <ele>35.42</ele>
        <time>2019-02-03T08:13:30Z</time>
      </trkpt>
      <trkpt lat="43.389045" lon="-3.812323">
        <ele>36.25</ele>
        <time>2019-02-03T08:13:32Z</time>
      </trkpt>
      <trkpt lat="43.389028" lon="-3.812283">
        <ele>36.84</ele>
        <time>2019-02-03T08:13:34Z</time>
      </trkpt>
      <trkpt lat="43.389009" lon="-3.812237">
        <ele>37.46</ele>
        <time>2019-02-03T08:13:36Z</time>
      </trkpt>
      <trkpt lat="43.389002" lon="-3.812213">
        <ele>37.68</ele>
        <time>2019-02-03T08:13:37Z</time>
      </trkpt>
      <trkpt lat="43.388995" lon="-3.812188">
        <ele>37.86</ele>
        <time>2019-02-03T08:13:38Z</time>
      </trkpt>
      <trkpt lat="43.388986" lon="-3.812164">
        <ele>38.06</ele>
        <time>2019-02-03T08:13:39Z</time>
      </trkpt>
      <trkpt lat="43.388974" lon="-3.812123">
        <ele>38.21</ele>
        <time>2019-02-03T08:13:41Z</time>
      </trkpt>
      <trkpt lat="43.388950" lon="-3.812078">
        <ele>38.62</ele>
        <time>2019-02-03T08:13:43Z</time>
      </trkpt>
      <trkpt lat="43.388890" lon="-3.811968">
        <ele>39.20</ele>
        <time>2019-02-03T08:13:48Z</time>
      </trkpt>
      <trkpt lat="43.388825" lon="-3.811902">
        <ele>40.01</ele>
        <time>2019-02-03T08:13:52Z</time>
      </trkpt>
      <trkpt lat="43.388770" lon="-3.811841">
        <ele>40.47</ele>
        <time>2019-02-03T08:13:55Z</time>
      </trkpt>
      <trkpt lat="43.388680" lon="-3.811751">
        <ele>41.01</ele>
        <time>2019-02-03T08:14:00Z</time>
      </trkpt>
      <trkpt lat="43.388599" lon="-3.811689">
        <ele>41.67</ele>
        <time>2019-02-03T08:14:05Z</time>
      </trkpt>
      <trkpt lat="43.388531" lon="-3.811651">
        <ele>42.49</ele>
        <time>2019-02-03T08:14:08Z</time>
      </trkpt>
      <trkpt lat="43.388496" lon="-3.811643">
        <ele>43.23</ele>
        <time>2019-02-03T08:14:10Z</time>
      </trkpt>
      <trkpt lat="43.388479" lon="-3.811634">
        <ele>43.46</ele>
        <time>2019-02-03T08:14:11Z</time>
      </trkpt>
      <trkpt lat="43.388446" lon="-3.811612">
        <ele>43.84</ele>
        <time>2019-02-03T08:14:13Z</time>
      </trkpt>
      <trkpt lat="43.388413" lon="-3.811586">
        <ele>44.48</ele>
        <time>2019-02-03T08:14:15Z</time>
      </trkpt>
      <trkpt lat="43.388397" lon="-3.811571">
        <ele>44.64</ele>
        <time>2019-02-03T08:14:16Z</time>
      </trkpt>
      <trkpt lat="43.388344" lon="-3.811553">
        <ele>47.00</ele>
        <time>2019-02-03T08:14:29Z</time>
      </trkpt>
      <trkpt lat="43.388260" lon="-3.811480">
        <ele>47.42</ele>
        <time>2019-02-03T08:14:34Z</time>
      </trkpt>
      <trkpt lat="43.388181" lon="-3.811413">
        <ele>47.81</ele>
        <time>2019-02-03T08:14:38Z</time>
      </trkpt>
      <trkpt lat="43.388106" lon="-3.811356">
        <ele>48.50</ele>
        <time>2019-02-03T08:14:42Z</time>
      </trkpt>
      <trkpt lat="43.388058" lon="-3.811308">
        <ele>49.09</ele>
        <time>2019-02-03T08:14:45Z</time>
      </trkpt>
      <trkpt lat="43.388041" lon="-3.811281">
        <ele>49.02</ele>
        <time>2019-02-03T08:14:46Z</time>
      </trkpt>
      <trkpt lat="43.388025" lon="-3.811260">
        <ele>49.23</ele>
        <time>2019-02-03T08:14:47Z</time>
      </trkpt>
      <trkpt lat="43.388008" lon="-3.811234">
        <ele>49.50</ele>
        <time>2019-02-03T08:14:48Z</time>
      </trkpt>
      <trkpt lat="43.387989" lon="-3.811211">
        <ele>49.61</ele>
        <time>2019-02-03T08:14:49Z</time>
      </trkpt>
      <trkpt lat="43.387973" lon="-3.811188">
        <ele>49.88</ele>
        <time>2019-02-03T08:14:50Z</time>
      </trkpt>
      <trkpt lat="43.387956" lon="-3.811169">
        <ele>50.28</ele>
        <time>2019-02-03T08:14:51Z</time>
      </trkpt>
      <trkpt lat="43.387942" lon="-3.811146">
        <ele>50.43</ele>
        <time>2019-02-03T08:14:52Z</time>
      </trkpt>
      <trkpt lat="43.387925" lon="-3.811121">
        <ele>50.89</ele>
        <time>2019-02-03T08:14:53Z</time>
      </trkpt>
      <trkpt lat="43.387909" lon="-3.811098">
        <ele>51.02</ele>
        <time>2019-02-03T08:14:54Z</time>
      </trkpt>
      <trkpt lat="43.387890" lon="-3.811079">
        <ele>51.01</ele>
        <time>2019-02-03T08:14:55Z</time>
      </trkpt>
      <trkpt lat="43.387847" lon="-3.811064">
        <ele>51.45</ele>
        <time>2019-02-03T08:14:57Z</time>
      </trkpt>
      <trkpt lat="43.387828" lon="-3.811055">
        <ele>51.66</ele>
        <time>2019-02-03T08:14:58Z</time>
      </trkpt>
      <trkpt lat="43.387808" lon="-3.811056">
        <ele>51.85</ele>
        <time>2019-02-03T08:14:59Z</time>
      </trkpt>
      <trkpt lat="43.387789" lon="-3.811048">
        <ele>52.28</ele>
        <time>2019-02-03T08:15:00Z</time>
      </trkpt>
      <trkpt lat="43.387769" lon="-3.811036">
        <ele>52.24</ele>
        <time>2019-02-03T08:15:01Z</time>
      </trkpt>
      <trkpt lat="43.387748" lon="-3.811029">
        <ele>52.42</ele>
        <time>2019-02-03T08:15:02Z</time>
      </trkpt>
      <trkpt lat="43.387728" lon="-3.811029">
        <ele>52.67</ele>
        <time>2019-02-03T08:15:03Z</time>
      </trkpt>
      <trkpt lat="43.387636" lon="-3.811038">
        <ele>53.44</ele>
        <time>2019-02-03T08:15:08Z</time>
      </trkpt>
      <trkpt lat="43.387546" lon="-3.811051">
        <ele>54.29</ele>
        <time>2019-02-03T08:15:14Z</time>
      </trkpt>
      <trkpt lat="43.387453" lon="-3.811069">
        <ele>55.27</ele>
        <time>2019-02-03T08:15:20Z</time>
      </trkpt>
      <trkpt lat="43.387354" lon="-3.811068">
        <ele>56.42</ele>
        <time>2019-02-03T08:15:26Z</time>
      </trkpt>
      <trkpt lat="43.387250" lon="-3.811059">
        <ele>57.81</ele>
        <time>2019-02-03T08:15:33Z</time>
      </trkpt>
      <trkpt lat="43.387149" lon="-3.811024">
        <ele>58.83</ele>
        <time>2019-02-03T08:15:39Z</time>
      </trkpt>
      <trkpt lat="43.387064" lon="-3.810947">
        <ele>60.42</ele>
        <time>2019-02-03T08:15:45Z</time>
      </trkpt>
      <trkpt lat="43.386977" lon="-3.810860">
        <ele>62.02</ele>
        <time>2019-02-03T08:15:52Z</time>
      </trkpt>
      <trkpt lat="43.386950" lon="-3.810835">
        <ele>62.69</ele>
        <time>2019-02-03T08:15:54Z</time>
      </trkpt>
      <trkpt lat="43.386930" lon="-3.810811">
        <ele>63.23</ele>
        <time>2019-02-03T08:15:56Z</time>
      </trkpt>
      <trkpt lat="43.386917" lon="-3.810793">
        <ele>63.64</ele>
        <time>2019-02-03T08:15:57Z</time>
      </trkpt>
      <trkpt lat="43.386900" lon="-3.810775">
        <ele>63.88</ele>
        <time>2019-02-03T08:15:58Z</time>
      </trkpt>
      <trkpt lat="43.386869" lon="-3.810741">
        <ele>64.45</ele>
        <time>2019-02-03T08:16:00Z</time>
      </trkpt>
      <trkpt lat="43.386853" lon="-3.810721">
        <ele>64.68</ele>
        <time>2019-02-03T08:16:01Z</time>
      </trkpt>
      <trkpt lat="43.386839" lon="-3.810706">
        <ele>64.84</ele>
        <time>2019-02-03T08:16:02Z</time>
      </trkpt>
      <trkpt lat="43.386758" lon="-3.810630">
        <ele>66.22</ele>
        <time>2019-02-03T08:16:08Z</time>
      </trkpt>
      <trkpt lat="43.386692" lon="-3.810537">
        <ele>67.41</ele>
        <time>2019-02-03T08:16:13Z</time>
      </trkpt>
      <trkpt lat="43.386623" lon="-3.810439">
        <ele>68.22</ele>
        <time>2019-02-03T08:16:19Z</time>
      </trkpt>
      <trkpt lat="43.386594" lon="-3.810309">
        <ele>69.61</ele>
        <time>2019-02-03T08:16:24Z</time>
      </trkpt>
      <trkpt lat="43.386596" lon="-3.810164">
        <ele>70.61</ele>
        <time>2019-02-03T08:16:29Z</time>
      </trkpt>
      <trkpt lat="43.386590" lon="-3.810074">
        <ele>71.08</ele>
        <time>2019-02-03T08:16:32Z</time>
      </trkpt>
      <trkpt lat="43.386592" lon="-3.810043">
        <ele>71.43</ele>
        <time>2019-02-03T08:16:33Z</time>
      </trkpt>
      <trkpt lat="43.386590" lon="-3.810010">
        <ele>72.10</ele>
        <time>2019-02-03T08:16:34Z</time>
      </trkpt>
      <trkpt lat="43.386591" lon="-3.809978">
        <ele>72.65</ele>
        <time>2019-02-03T08:16:35Z</time>
      </trkpt>
      <trkpt lat="43.386591" lon="-3.809949">
        <ele>73.06</ele>
        <time>2019-02-03T08:16:36Z</time>
      </trkpt>
      <trkpt lat="43.386591" lon="-3.809920">
        <ele>73.67</ele>
        <time>2019-02-03T08:16:37Z</time>
      </trkpt>
      <trkpt lat="43.386589" lon="-3.809870">
        <ele>74.47</ele>
        <time>2019-02-03T08:16:39Z</time>
      </trkpt>
      <trkpt lat="43.386586" lon="-3.809845">
        <ele>74.81</ele>
        <time>2019-02-03T08:16:40Z</time>
      </trkpt>
      <trkpt lat="43.386582" lon="-3.809821">
        <ele>75.01</ele>
        <time>2019-02-03T08:16:41Z</time>
      </trkpt>
      <trkpt lat="43.386576" lon="-3.809793">
        <ele>75.28</ele>
        <time>2019-02-03T08:16:42Z</time>
      </trkpt>
      <trkpt lat="43.386574" lon="-3.809767">
        <ele>75.49</ele>
        <time>2019-02-03T08:16:43Z</time>
      </trkpt>
      <trkpt lat="43.386569" lon="-3.809738">
        <ele>75.42</ele>
        <time>2019-02-03T08:16:44Z</time>
      </trkpt>
      <trkpt lat="43.386564" lon="-3.809712">
        <ele>75.65</ele>
        <time>2019-02-03T08:16:45Z</time>
      </trkpt>
      <trkpt lat="43.386568" lon="-3.809684">
        <ele>75.89</ele>
        <time>2019-02-03T08:16:46Z</time>
      </trkpt>
      <trkpt lat="43.386572" lon="-3.809654">
        <ele>76.10</ele>
        <time>2019-02-03T08:16:47Z</time>
      </trkpt>
      <trkpt lat="43.386578" lon="-3.809623">
        <ele>76.48</ele>
        <time>2019-02-03T08:16:48Z</time>
      </trkpt>
      <trkpt lat="43.386557" lon="-3.809479">
        <ele>77.89</ele>
        <time>2019-02-03T08:16:53Z</time>
      </trkpt>
      <trkpt lat="43.386522" lon="-3.809436">
        <ele>78.48</ele>
        <time>2019-02-03T08:16:55Z</time>
      </trkpt>
      <trkpt lat="43.386503" lon="-3.809420">
        <ele>78.69</ele>
        <time>2019-02-03T08:16:56Z</time>
      </trkpt>
      <trkpt lat="43.386480" lon="-3.809406">
        <ele>78.82</ele>
        <time>2019-02-03T08:16:57Z</time>
      </trkpt>
      <trkpt lat="43.386396" lon="-3.809351">
        <ele>79.61</ele>
        <time>2019-02-03T08:17:01Z</time>
      </trkpt>
      <trkpt lat="43.386373" lon="-3.809338">
        <ele>79.81</ele>
        <time>2019-02-03T08:17:02Z</time>
      </trkpt>
      <trkpt lat="43.386280" lon="-3.809273">
        <ele>80.84</ele>
        <time>2019-02-03T08:17:08Z</time>
      </trkpt>
      <trkpt lat="43.386248" lon="-3.809251">
        <ele>81.27</ele>
        <time>2019-02-03T08:17:10Z</time>
      </trkpt>
      <trkpt lat="43.386213" lon="-3.809232">
        <ele>81.62</ele>
        <time>2019-02-03T08:17:12Z</time>
      </trkpt>
      <trkpt lat="43.386198" lon="-3.809220">
        <ele>81.86</ele>
        <time>2019-02-03T08:17:13Z</time>
      </trkpt>
      <trkpt lat="43.386165" lon="-3.809195">
        <ele>82.28</ele>
        <time>2019-02-03T08:17:15Z</time>
      </trkpt>
      <trkpt lat="43.386138" lon="-3.809175">
        <ele>82.66</ele>
        <time>2019-02-03T08:17:17Z</time>
      </trkpt>
      <trkpt lat="43.386105" lon="-3.809147">
        <ele>83.09</ele>
        <time>2019-02-03T08:17:19Z</time>
      </trkpt>
      <trkpt lat="43.386087" lon="-3.809136">
        <ele>83.29</ele>
        <time>2019-02-03T08:17:20Z</time>
      </trkpt>
      <trkpt lat="43.386071" lon="-3.809124">
        <ele>83.47</ele>
        <time>2019-02-03T08:17:21Z</time>
      </trkpt>
      <trkpt lat="43.386055" lon="-3.809110">
        <ele>83.62</ele>
        <time>2019-02-03T08:17:22Z</time>
      </trkpt>
      <trkpt lat="43.386023" lon="-3.809078">
        <ele>83.81</ele>
        <time>2019-02-03T08:17:24Z</time>
      </trkpt>
      <trkpt lat="43.386007" lon="-3.809062">
        <ele>84.04</ele>
        <time>2019-02-03T08:17:25Z</time>
      </trkpt>
      <trkpt lat="43.385991" lon="-3.809047">
        <ele>84.27</ele>
        <time>2019-02-03T08:17:26Z</time>
      </trkpt>
      <trkpt lat="43.385975" lon="-3.809034">
        <ele>84.43</ele>
        <time>2019-02-03T08:17:27Z</time>
      </trkpt>
      <trkpt lat="43.385956" lon="-3.809014">
        <ele>84.63</ele>
        <time>2019-02-03T08:17:28Z</time>
      </trkpt>
      <trkpt lat="43.385939" lon="-3.808998">
        <ele>84.84</ele>
        <time>2019-02-03T08:17:29Z</time>
      </trkpt>
      <trkpt lat="43.385905" lon="-3.808971">
        <ele>85.26</ele>
        <time>2019-02-03T08:17:31Z</time>
      </trkpt>
      <trkpt lat="43.385888" lon="-3.808957">
        <ele>85.50</ele>
        <time>2019-02-03T08:17:32Z</time>
      </trkpt>
      <trkpt lat="43.385871" lon="-3.808943">
        <ele>86.10</ele>
        <time>2019-02-03T08:17:33Z</time>
      </trkpt>
      <trkpt lat="43.385843" lon="-3.808920">
        <ele>86.42</ele>
        <time>2019-02-03T08:17:35Z</time>
      </trkpt>
      <trkpt lat="43.385814" lon="-3.808900">
        <ele>87.06</ele>
        <time>2019-02-03T08:17:37Z</time>
      </trkpt>
      <trkpt lat="43.385797" lon="-3.808884">
        <ele>87.21</ele>
        <time>2019-02-03T08:17:38Z</time>
      </trkpt>
      <trkpt lat="43.385781" lon="-3.808869">
        <ele>87.41</ele>
        <time>2019-02-03T08:17:39Z</time>
      </trkpt>
      <trkpt lat="43.385760" lon="-3.808844">
        <ele>87.81</ele>
        <time>2019-02-03T08:17:41Z</time>
      </trkpt>
      <trkpt lat="43.385747" lon="-3.808824">
        <ele>88.06</ele>
        <time>2019-02-03T08:17:42Z</time>
      </trkpt>
      <trkpt lat="43.385735" lon="-3.808802">
        <ele>88.27</ele>
        <time>2019-02-03T08:17:43Z</time>
      </trkpt>
      <trkpt lat="43.385726" lon="-3.808777">
        <ele>88.49</ele>
        <time>2019-02-03T08:17:44Z</time>
      </trkpt>
      <trkpt lat="43.385716" lon="-3.808756">
        <ele>88.65</ele>
        <time>2019-02-03T08:17:45Z</time>
      </trkpt>
      <trkpt lat="43.385692" lon="-3.808722">
        <ele>89.41</ele>
        <time>2019-02-03T08:17:47Z</time>
      </trkpt>
      <trkpt lat="43.385676" lon="-3.808703">
        <ele>89.66</ele>
        <time>2019-02-03T08:17:48Z</time>
      </trkpt>
      <trkpt lat="43.385662" lon="-3.808683">
        <ele>89.82</ele>
        <time>2019-02-03T08:17:49Z</time>
      </trkpt>
      <trkpt lat="43.385649" lon="-3.808663">
        <ele>90.09</ele>
        <time>2019-02-03T08:17:50Z</time>
      </trkpt>
      <trkpt lat="43.385633" lon="-3.808642">
        <ele>90.27</ele>
        <time>2019-02-03T08:17:51Z</time>
      </trkpt>
      <trkpt lat="43.385596" lon="-3.808582">
        <ele>90.62</ele>
        <time>2019-02-03T08:17:54Z</time>
      </trkpt>
      <trkpt lat="43.385584" lon="-3.808563">
        <ele>90.81</ele>
        <time>2019-02-03T08:17:55Z</time>
      </trkpt>
      <trkpt lat="43.385568" lon="-3.808540">
        <ele>91.09</ele>
        <time>2019-02-03T08:17:56Z</time>
      </trkpt>
      <trkpt lat="43.385557" lon="-3.808518">
        <ele>91.23</ele>
        <time>2019-02-03T08:17:57Z</time>
      </trkpt>
      <trkpt lat="43.385543" lon="-3.808495">
        <ele>91.43</ele>
        <time>2019-02-03T08:17:58Z</time>
      </trkpt>
      <trkpt lat="43.385531" lon="-3.808473">
        <ele>91.47</ele>
        <time>2019-02-03T08:17:59Z</time>
      </trkpt>
      <trkpt lat="43.385495" lon="-3.808393">
        <ele>92.42</ele>
        <time>2019-02-03T08:18:03Z</time>
      </trkpt>
      <trkpt lat="43.385484" lon="-3.808359">
        <ele>92.89</ele>
        <time>2019-02-03T08:18:05Z</time>
      </trkpt>
      <trkpt lat="43.385470" lon="-3.808321">
        <ele>93.30</ele>
        <time>2019-02-03T08:18:07Z</time>
      </trkpt>
      <trkpt lat="43.385459" lon="-3.808292">
        <ele>93.63</ele>
        <time>2019-02-03T08:18:09Z</time>
      </trkpt>
      <trkpt lat="43.385448" lon="-3.808261">
        <ele>93.89</ele>
        <time>2019-02-03T08:18:11Z</time>
      </trkpt>
      <trkpt lat="43.385438" lon="-3.808234">
        <ele>94.01</ele>
        <time>2019-02-03T08:18:13Z</time>
      </trkpt>
      <trkpt lat="43.385427" lon="-3.808205">
        <ele>94.43</ele>
        <time>2019-02-03T08:18:15Z</time>
      </trkpt>
      <trkpt lat="43.385419" lon="-3.808175">
        <ele>94.81</ele>
        <time>2019-02-03T08:18:17Z</time>
      </trkpt>
      <trkpt lat="43.385407" lon="-3.808142">
        <ele>95.08</ele>
        <time>2019-02-03T08:18:19Z</time>
      </trkpt>
      <trkpt lat="43.385402" lon="-3.808110">
        <ele>95.48</ele>
        <time>2019-02-03T08:18:21Z</time>
      </trkpt>
      <trkpt lat="43.385388" lon="-3.808074">
        <ele>95.67</ele>
        <time>2019-02-03T08:18:23Z</time>
      </trkpt>
      <trkpt lat="43.385383" lon="-3.808040">
        <ele>96.07</ele>
        <time>2019-02-03T08:18:25Z</time>
      </trkpt>
      <trkpt lat="43.385371" lon="-3.808000">
        <ele>96.45</ele>
        <time>2019-02-03T08:18:27Z</time>
      </trkpt>
      <trkpt lat="43.385359" lon="-3.807964">
        <ele>96.84</ele>
        <time>2019-02-03T08:18:29Z</time>
      </trkpt>
      <trkpt lat="43.385348" lon="-3.807927">
        <ele>97.29</ele>
        <time>2019-02-03T08:18:31Z</time>
      </trkpt>
      <trkpt lat="43.385338" lon="-3.807906">
        <ele>97.65</ele>
        <time>2019-02-03T08:18:33Z</time>
      </trkpt>
      <trkpt lat="43.385332" lon="-3.807880">
        <ele>98.06</ele>
        <time>2019-02-03T08:18:35Z</time>
      </trkpt>
      <trkpt lat="43.385327" lon="-3.807842">
        <ele>98.25</ele>
        <time>2019-02-03T08:18:37Z</time>
      </trkpt>
      <trkpt lat="43.385315" lon="-3.807796">
        <ele>98.62</ele>
        <time>2019-02-03T08:18:39Z</time>
      </trkpt>
      <trkpt lat="43.385298" lon="-3.807657">
        <ele>99.41</ele>
        <time>2019-02-03T08:18:45Z</time>
      </trkpt>
      <trkpt lat="43.385269" lon="-3.807540">
        <ele>100.30</ele>
        <time>2019-02-03T08:18:49Z</time>
      </trkpt>
      <trkpt lat="43.385255" lon="-3.807399">
        <ele>101.05</ele>
        <time>2019-02-03T08:18:54Z</time>
      </trkpt>
      <trkpt lat="43.385229" lon="-3.807261">
        <ele>101.68</ele>
        <time>2019-02-03T08:18:59Z</time>
      </trkpt>
      <trkpt lat="43.385208" lon="-3.807132">
        <ele>102.49</ele>
        <time>2019-02-03T08:19:04Z</time>
      </trkpt>
      <trkpt lat="43.385178" lon="-3.807007">
        <ele>103.84</ele>
        <time>2019-02-03T08:19:09Z</time>
      </trkpt>
      <trkpt lat="43.385150" lon="-3.806920">
        <ele>105.03</ele>
        <time>2019-02-03T08:19:13Z</time>
      </trkpt>
      <trkpt lat="43.385143" lon="-3.806896">
        <ele>105.08</ele>
        <time>2019-02-03T08:19:14Z</time>
      </trkpt>
      <trkpt lat="43.385138" lon="-3.806870">
        <ele>105.26</ele>
        <time>2019-02-03T08:19:15Z</time>
      </trkpt>
      <trkpt lat="43.385118" lon="-3.806825">
        <ele>105.63</ele>
        <time>2019-02-03T08:19:17Z</time>
      </trkpt>
      <trkpt lat="43.385103" lon="-3.806801">
        <ele>105.89</ele>
        <time>2019-02-03T08:19:18Z</time>
      </trkpt>
      <trkpt lat="43.385085" lon="-3.806776">
        <ele>106.01</ele>
        <time>2019-02-03T08:19:19Z</time>
      </trkpt>
      <trkpt lat="43.385070" lon="-3.806757">
        <ele>106.01</ele>
        <time>2019-02-03T08:19:20Z</time>
      </trkpt>
      <trkpt lat="43.385056" lon="-3.806730">
        <ele>106.24</ele>
        <time>2019-02-03T08:19:21Z</time>
      </trkpt>
      <trkpt lat="43.385041" lon="-3.806703">
        <ele>106.43</ele>
        <time>2019-02-03T08:19:22Z</time>
      </trkpt>
      <trkpt lat="43.385030" lon="-3.806682">
        <ele>106.64</ele>
        <time>2019-02-03T08:19:23Z</time>
      </trkpt>
      <trkpt lat="43.385017" lon="-3.806661">
        <ele>106.65</ele>
        <time>2019-02-03T08:19:24Z</time>
      </trkpt>
      <trkpt lat="43.385005" lon="-3.806638">
        <ele>106.85</ele>
        <time>2019-02-03T08:19:25Z</time>
      </trkpt>
      <trkpt lat="43.384978" lon="-3.806512">
        <ele>107.87</ele>
        <time>2019-02-03T08:19:30Z</time>
      </trkpt>
      <trkpt lat="43.384937" lon="-3.806370">
        <ele>108.89</ele>
        <time>2019-02-03T08:19:35Z</time>
      </trkpt>
      <trkpt lat="43.384931" lon="-3.806311">
        <ele>109.05</ele>
        <time>2019-02-03T08:19:37Z</time>
      </trkpt>
      <trkpt lat="43.384921" lon="-3.806280">
        <ele>109.44</ele>
        <time>2019-02-03T08:19:38Z</time>
      </trkpt>
      <trkpt lat="43.384917" lon="-3.806247">
        <ele>109.65</ele>
        <time>2019-02-03T08:19:39Z</time>
      </trkpt>
      <trkpt lat="43.384916" lon="-3.806218">
        <ele>109.81</ele>
        <time>2019-02-03T08:19:40Z</time>
      </trkpt>
      <trkpt lat="43.384912" lon="-3.806185">
        <ele>109.81</ele>
        <time>2019-02-03T08:19:41Z</time>
      </trkpt>
      <trkpt lat="43.384912" lon="-3.806154">
        <ele>110.08</ele>
        <time>2019-02-03T08:19:42Z</time>
      </trkpt>
      <trkpt lat="43.384887" lon="-3.806031">
        <ele>110.46</ele>
        <time>2019-02-03T08:19:46Z</time>
      </trkpt>
      <trkpt lat="43.384823" lon="-3.805957">
        <ele>111.06</ele>
        <time>2019-02-03T08:19:50Z</time>
      </trkpt>
      <trkpt lat="43.384805" lon="-3.805947">
        <ele>111.22</ele>
        <time>2019-02-03T08:19:51Z</time>
      </trkpt>
      <trkpt lat="43.384783" lon="-3.805937">
        <ele>111.23</ele>
        <time>2019-02-03T08:19:52Z</time>
      </trkpt>
      <trkpt lat="43.384764" lon="-3.805929">
        <ele>111.28</ele>
        <time>2019-02-03T08:19:53Z</time>
      </trkpt>
      <trkpt lat="43.384742" lon="-3.805926">
        <ele>111.44</ele>
        <time>2019-02-03T08:19:54Z</time>
      </trkpt>
      <trkpt lat="43.384717" lon="-3.805921">
        <ele>111.47</ele>
        <time>2019-02-03T08:19:55Z</time>
      </trkpt>
      <trkpt lat="43.384694" lon="-3.805914">
        <ele>111.65</ele>
        <time>2019-02-03T08:19:56Z</time>
      </trkpt>
      <trkpt lat="43.384599" lon="-3.805906">
        <ele>112.00</ele>
        <time>2019-02-03T08:20:00Z</time>
      </trkpt>
      <trkpt lat="43.384490" lon="-3.805961">
        <ele>112.82</ele>
        <time>2019-02-03T08:20:05Z</time>
      </trkpt>
      <trkpt lat="43.384383" lon="-3.805994">
        <ele>113.41</ele>
        <time>2019-02-03T08:20:09Z</time>
      </trkpt>
      <trkpt lat="43.384298" lon="-3.806039">
        <ele>114.03</ele>
        <time>2019-02-03T08:20:13Z</time>
      </trkpt>
      <trkpt lat="43.384195" lon="-3.806107">
        <ele>114.23</ele>
        <time>2019-02-03T08:20:17Z</time>
      </trkpt>
      <trkpt lat="43.384090" lon="-3.806127">
        <ele>114.88</ele>
        <time>2019-02-03T08:20:21Z</time>
      </trkpt>
      <trkpt lat="43.383996" lon="-3.806121">
        <ele>115.46</ele>
        <time>2019-02-03T08:20:25Z</time>
      </trkpt>
      <trkpt lat="43.383893" lon="-3.806130">
        <ele>116.23</ele>
        <time>2019-02-03T08:20:29Z</time>
      </trkpt>
      <trkpt lat="43.383793" lon="-3.806122">
        <ele>116.61</ele>
        <time>2019-02-03T08:20:34Z</time>
      </trkpt>
      <trkpt lat="43.383700" lon="-3.806094">
        <ele>117.08</ele>
        <time>2019-02-03T08:20:38Z</time>
      </trkpt>
      <trkpt lat="43.383627" lon="-3.806019">
        <ele>117.42</ele>
        <time>2019-02-03T08:20:42Z</time>
      </trkpt>
      <trkpt lat="43.383550" lon="-3.805937">
        <ele>117.68</ele>
        <time>2019-02-03T08:20:46Z</time>
      </trkpt>
      <trkpt lat="43.383531" lon="-3.805918">
        <ele>117.61</ele>
        <time>2019-02-03T08:20:47Z</time>
      </trkpt>
      <trkpt lat="43.383510" lon="-3.805900">
        <ele>117.83</ele>
        <time>2019-02-03T08:20:48Z</time>
      </trkpt>
      <trkpt lat="43.383489" lon="-3.805885">
        <ele>117.81</ele>
        <time>2019-02-03T08:20:49Z</time>
      </trkpt>
      <trkpt lat="43.383410" lon="-3.805816">
        <ele>118.25</ele>
        <time>2019-02-03T08:20:53Z</time>
      </trkpt>
      <trkpt lat="43.383327" lon="-3.805735">
        <ele>118.84</ele>
        <time>2019-02-03T08:20:57Z</time>
      </trkpt>
      <trkpt lat="43.383249" lon="-3.805637">
        <ele>119.41</ele>
        <time>2019-02-03T08:21:02Z</time>
      </trkpt>
      <trkpt lat="43.383178" lon="-3.805548">
        <ele>120.02</ele>
        <time>2019-02-03T08:21:06Z</time>
      </trkpt>
      <trkpt lat="43.383105" lon="-3.805454">
        <ele>120.25</ele>
        <time>2019-02-03T08:21:10Z</time>
      </trkpt>
      <trkpt lat="43.383017" lon="-3.805347">
        <ele>120.26</ele>
        <time>2019-02-03T08:21:14Z</time>
      </trkpt>
      <trkpt lat="43.382947" lon="-3.805264">
        <ele>120.84</ele>
        <time>2019-02-03T08:21:18Z</time>
      </trkpt>
      <trkpt lat="43.382891" lon="-3.805166">
        <ele>121.02</ele>
        <time>2019-02-03T08:21:22Z</time>
      </trkpt>
      <trkpt lat="43.382823" lon="-3.805070">
        <ele>121.66</ele>
        <time>2019-02-03T08:21:27Z</time>
      </trkpt>
      <trkpt lat="43.382749" lon="-3.804976">
        <ele>122.41</ele>
        <time>2019-02-03T08:21:32Z</time>
      </trkpt>
      <trkpt lat="43.382711" lon="-3.804854">
        <ele>123.42</ele>
        <time>2019-02-03T08:21:38Z</time>
      </trkpt>
      <trkpt lat="43.382641" lon="-3.804729">
        <ele>124.01</ele>
        <time>2019-02-03T08:21:43Z</time>
      </trkpt>
      <trkpt lat="43.382555" lon="-3.804634">
        <ele>124.04</ele>
        <time>2019-02-03T08:21:48Z</time>
      </trkpt>
      <trkpt lat="43.382457" lon="-3.804618">
        <ele>122.48</ele>
        <time>2019-02-03T08:21:54Z</time>
      </trkpt>
      <trkpt lat="43.382359" lon="-3.804585">
        <ele>122.01</ele>
        <time>2019-02-03T08:22:01Z</time>
      </trkpt>
      <trkpt lat="43.382099" lon="-3.804366">
        <ele>124.77</ele>
        <time>2019-02-03T08:22:40Z</time>
      </trkpt>
      <trkpt lat="43.382077" lon="-3.804245">
        <ele>125.08</ele>
        <time>2019-02-03T08:22:50Z</time>
      </trkpt>
      <trkpt lat="43.382056" lon="-3.804083">
        <ele>126.43</ele>
        <time>2019-02-03T08:22:54Z</time>
      </trkpt>
      <trkpt lat="43.382048" lon="-3.804040">
        <ele>127.02</ele>
        <time>2019-02-03T08:22:55Z</time>
      </trkpt>
      <trkpt lat="43.382033" lon="-3.803964">
        <ele>127.89</ele>
        <time>2019-02-03T08:22:57Z</time>
      </trkpt>
      <trkpt lat="43.382027" lon="-3.803932">
        <ele>128.08</ele>
        <time>2019-02-03T08:22:58Z</time>
      </trkpt>
      <trkpt lat="43.382031" lon="-3.803804">
        <ele>129.84</ele>
        <time>2019-02-03T08:23:04Z</time>
      </trkpt>
      <trkpt lat="43.382111" lon="-3.803713">
        <ele>131.62</ele>
        <time>2019-02-03T08:23:11Z</time>
      </trkpt>
      <trkpt lat="43.382187" lon="-3.803618">
        <ele>132.81</ele>
        <time>2019-02-03T08:23:17Z</time>
      </trkpt>
      <trkpt lat="43.382176" lon="-3.803470">
        <ele>134.65</ele>
        <time>2019-02-03T08:23:23Z</time>
      </trkpt>
      <trkpt lat="43.382109" lon="-3.803364">
        <ele>136.24</ele>
        <time>2019-02-03T08:23:28Z</time>
      </trkpt>
      <trkpt lat="43.382030" lon="-3.803281">
        <ele>137.04</ele>
        <time>2019-02-03T08:23:33Z</time>
      </trkpt>
      <trkpt lat="43.381953" lon="-3.803197">
        <ele>139.07</ele>
        <time>2019-02-03T08:23:39Z</time>
      </trkpt>
      <trkpt lat="43.381880" lon="-3.803121">
        <ele>139.82</ele>
        <time>2019-02-03T08:23:43Z</time>
      </trkpt>
      <trkpt lat="43.381827" lon="-3.803011">
        <ele>140.50</ele>
        <time>2019-02-03T08:23:48Z</time>
      </trkpt>
      <trkpt lat="43.381747" lon="-3.802923">
        <ele>141.64</ele>
        <time>2019-02-03T08:23:53Z</time>
      </trkpt>
      <trkpt lat="43.381719" lon="-3.802868">
        <ele>142.04</ele>
        <time>2019-02-03T08:23:55Z</time>
      </trkpt>
      <trkpt lat="43.381642" lon="-3.802785">
        <ele>143.23</ele>
        <time>2019-02-03T08:24:00Z</time>
      </trkpt>
      <trkpt lat="43.381568" lon="-3.802691">
        <ele>144.29</ele>
        <time>2019-02-03T08:24:04Z</time>
      </trkpt>
      <trkpt lat="43.381505" lon="-3.802576">
        <ele>145.62</ele>
        <time>2019-02-03T08:24:09Z</time>
      </trkpt>
      <trkpt lat="43.381478" lon="-3.802436">
        <ele>147.01</ele>
        <time>2019-02-03T08:24:14Z</time>
      </trkpt>
      <trkpt lat="43.381457" lon="-3.802313">
        <ele>147.66</ele>
        <time>2019-02-03T08:24:18Z</time>
      </trkpt>
      <trkpt lat="43.381426" lon="-3.802168">
        <ele>148.68</ele>
        <time>2019-02-03T08:24:23Z</time>
      </trkpt>
      <trkpt lat="43.381362" lon="-3.802074">
        <ele>150.45</ele>
        <time>2019-02-03T08:24:27Z</time>
      </trkpt>
      <trkpt lat="43.381346" lon="-3.802063">
        <ele>150.88</ele>
        <time>2019-02-03T08:24:28Z</time>
      </trkpt>
      <trkpt lat="43.381327" lon="-3.802049">
        <ele>150.84</ele>
        <time>2019-02-03T08:24:29Z</time>
      </trkpt>
      <trkpt lat="43.381308" lon="-3.802036">
        <ele>151.28</ele>
        <time>2019-02-03T08:24:30Z</time>
      </trkpt>
      <trkpt lat="43.381279" lon="-3.802016">
        <ele>151.43</ele>
        <time>2019-02-03T08:24:32Z</time>
      </trkpt>
      <trkpt lat="43.381237" lon="-3.802014">
        <ele>152.01</ele>
        <time>2019-02-03T08:24:35Z</time>
      </trkpt>
      <trkpt lat="43.381191" lon="-3.802020">
        <ele>152.46</ele>
        <time>2019-02-03T08:24:38Z</time>
      </trkpt>
      <trkpt lat="43.381141" lon="-3.802026">
        <ele>152.80</ele>
        <time>2019-02-03T08:24:41Z</time>
      </trkpt>
      <trkpt lat="43.381106" lon="-3.802026">
        <ele>152.82</ele>
        <time>2019-02-03T08:24:43Z</time>
      </trkpt>
      <trkpt lat="43.381073" lon="-3.802014">
        <ele>152.81</ele>
        <time>2019-02-03T08:24:45Z</time>
      </trkpt>
      <trkpt lat="43.381055" lon="-3.802006">
        <ele>152.84</ele>
        <time>2019-02-03T08:24:46Z</time>
      </trkpt>
      <trkpt lat="43.381022" lon="-3.802012">
        <ele>153.05</ele>
        <time>2019-02-03T08:24:48Z</time>
      </trkpt>
      <trkpt lat="43.380990" lon="-3.802023">
        <ele>153.21</ele>
        <time>2019-02-03T08:24:50Z</time>
      </trkpt>
      <trkpt lat="43.380970" lon="-3.802028">
        <ele>153.48</ele>
        <time>2019-02-03T08:24:51Z</time>
      </trkpt>
      <trkpt lat="43.380937" lon="-3.802042">
        <ele>153.44</ele>
        <time>2019-02-03T08:24:53Z</time>
      </trkpt>
      <trkpt lat="43.380920" lon="-3.802050">
        <ele>153.67</ele>
        <time>2019-02-03T08:24:54Z</time>
      </trkpt>
      <trkpt lat="43.380901" lon="-3.802052">
        <ele>153.65</ele>
        <time>2019-02-03T08:24:55Z</time>
      </trkpt>
      <trkpt lat="43.380877" lon="-3.802054">
        <ele>153.84</ele>
        <time>2019-02-03T08:24:56Z</time>
      </trkpt>
      <trkpt lat="43.380858" lon="-3.802063">
        <ele>154.06</ele>
        <time>2019-02-03T08:24:57Z</time>
      </trkpt>
      <trkpt lat="43.380837" lon="-3.802065">
        <ele>154.44</ele>
        <time>2019-02-03T08:24:58Z</time>
      </trkpt>
      <trkpt lat="43.380814" lon="-3.802066">
        <ele>154.42</ele>
        <time>2019-02-03T08:24:59Z</time>
      </trkpt>
      <trkpt lat="43.380790" lon="-3.802070">
        <ele>154.61</ele>
        <time>2019-02-03T08:25:00Z</time>
      </trkpt>
      <trkpt lat="43.380768" lon="-3.802080">
        <ele>154.88</ele>
        <time>2019-02-03T08:25:01Z</time>
      </trkpt>
      <trkpt lat="43.380744" lon="-3.802090">
        <ele>154.87</ele>
        <time>2019-02-03T08:25:02Z</time>
      </trkpt>
      <trkpt lat="43.380715" lon="-3.802096">
        <ele>155.08</ele>
        <time>2019-02-03T08:25:03Z</time>
      </trkpt>
      <trkpt lat="43.380693" lon="-3.802097">
        <ele>155.69</ele>
        <time>2019-02-03T08:25:04Z</time>
      </trkpt>
      <trkpt lat="43.380646" lon="-3.802094">
        <ele>155.84</ele>
        <time>2019-02-03T08:25:06Z</time>
      </trkpt>
      <trkpt lat="43.380626" lon="-3.802097">
        <ele>156.27</ele>
        <time>2019-02-03T08:25:07Z</time>
      </trkpt>
      <trkpt lat="43.380595" lon="-3.802107">
        <ele>156.68</ele>
        <time>2019-02-03T08:25:09Z</time>
      </trkpt>
      <trkpt lat="43.380561" lon="-3.802112">
        <ele>157.07</ele>
        <time>2019-02-03T08:25:11Z</time>
      </trkpt>
      <trkpt lat="43.380527" lon="-3.802122">
        <ele>157.45</ele>
        <time>2019-02-03T08:25:13Z</time>
      </trkpt>
      <trkpt lat="43.380510" lon="-3.802134">
        <ele>157.45</ele>
        <time>2019-02-03T08:25:14Z</time>
      </trkpt>
      <trkpt lat="43.380492" lon="-3.802142">
        <ele>157.61</ele>
        <time>2019-02-03T08:25:15Z</time>
      </trkpt>
      <trkpt lat="43.380473" lon="-3.802152">
        <ele>157.81</ele>
        <time>2019-02-03T08:25:16Z</time>
      </trkpt>
      <trkpt lat="43.380455" lon="-3.802159">
        <ele>158.28</ele>
        <time>2019-02-03T08:25:17Z</time>
      </trkpt>
      <trkpt lat="43.380434" lon="-3.802164">
        <ele>158.42</ele>
        <time>2019-02-03T08:25:18Z</time>
      </trkpt>
      <trkpt lat="43.380414" lon="-3.802170">
        <ele>158.42</ele>
        <time>2019-02-03T08:25:19Z</time>
      </trkpt>
      <trkpt lat="43.380396" lon="-3.802174">
        <ele>158.65</ele>
        <time>2019-02-03T08:25:20Z</time>
      </trkpt>
      <trkpt lat="43.380378" lon="-3.802180">
        <ele>158.63</ele>
        <time>2019-02-03T08:25:21Z</time>
      </trkpt>
      <trkpt lat="43.380356" lon="-3.802182">
        <ele>158.84</ele>
        <time>2019-02-03T08:25:22Z</time>
      </trkpt>
      <trkpt lat="43.380337" lon="-3.802186">
        <ele>159.07</ele>
        <time>2019-02-03T08:25:23Z</time>
      </trkpt>
      <trkpt lat="43.380319" lon="-3.802196">
        <ele>159.28</ele>
        <time>2019-02-03T08:25:24Z</time>
      </trkpt>
      <trkpt lat="43.380298" lon="-3.802204">
        <ele>159.42</ele>
        <time>2019-02-03T08:25:25Z</time>
      </trkpt>
      <trkpt lat="43.380274" lon="-3.802215">
        <ele>159.69</ele>
        <time>2019-02-03T08:25:26Z</time>
      </trkpt>
      <trkpt lat="43.380255" lon="-3.802223">
        <ele>159.62</ele>
        <time>2019-02-03T08:25:27Z</time>
      </trkpt>
      <trkpt lat="43.380226" lon="-3.802238">
        <ele>159.81</ele>
        <time>2019-02-03T08:25:28Z</time>
      </trkpt>
      <trkpt lat="43.380201" lon="-3.802249">
        <ele>160.09</ele>
        <time>2019-02-03T08:25:29Z</time>
      </trkpt>
      <trkpt lat="43.380181" lon="-3.802258">
        <ele>160.07</ele>
        <time>2019-02-03T08:25:30Z</time>
      </trkpt>
      <trkpt lat="43.380161" lon="-3.802265">
        <ele>160.25</ele>
        <time>2019-02-03T08:25:31Z</time>
      </trkpt>
      <trkpt lat="43.380141" lon="-3.802272">
        <ele>160.24</ele>
        <time>2019-02-03T08:25:32Z</time>
      </trkpt>
      <trkpt lat="43.380122" lon="-3.802279">
        <ele>160.26</ele>
        <time>2019-02-03T08:25:33Z</time>
      </trkpt>
      <trkpt lat="43.380103" lon="-3.802280">
        <ele>160.45</ele>
        <time>2019-02-03T08:25:34Z</time>
      </trkpt>
      <trkpt lat="43.380086" lon="-3.802287">
        <ele>160.67</ele>
        <time>2019-02-03T08:25:35Z</time>
      </trkpt>
      <trkpt lat="43.380056" lon="-3.802301">
        <ele>161.02</ele>
        <time>2019-02-03T08:25:37Z</time>
      </trkpt>
      <trkpt lat="43.380038" lon="-3.802307">
        <ele>161.21</ele>
        <time>2019-02-03T08:25:38Z</time>
      </trkpt>
      <trkpt lat="43.380019" lon="-3.802319">
        <ele>161.44</ele>
        <time>2019-02-03T08:25:39Z</time>
      </trkpt>
      <trkpt lat="43.379985" lon="-3.802331">
        <ele>161.81</ele>
        <time>2019-02-03T08:25:41Z</time>
      </trkpt>
      <trkpt lat="43.379963" lon="-3.802333">
        <ele>161.81</ele>
        <time>2019-02-03T08:25:42Z</time>
      </trkpt>
      <trkpt lat="43.379946" lon="-3.802337">
        <ele>162.21</ele>
        <time>2019-02-03T08:25:43Z</time>
      </trkpt>
      <trkpt lat="43.379916" lon="-3.802345">
        <ele>162.48</ele>
        <time>2019-02-03T08:25:45Z</time>
      </trkpt>
      <trkpt lat="43.379884" lon="-3.802357">
        <ele>163.10</ele>
        <time>2019-02-03T08:25:47Z</time>
      </trkpt>
      <trkpt lat="43.379852" lon="-3.802372">
        <ele>163.42</ele>
        <time>2019-02-03T08:25:49Z</time>
      </trkpt>
      <trkpt lat="43.379831" lon="-3.802384">
        <ele>163.62</ele>
        <time>2019-02-03T08:25:50Z</time>
      </trkpt>
      <trkpt lat="43.379812" lon="-3.802385">
        <ele>163.87</ele>
        <time>2019-02-03T08:25:51Z</time>
      </trkpt>
      <trkpt lat="43.379781" lon="-3.802392">
        <ele>164.22</ele>
        <time>2019-02-03T08:25:53Z</time>
      </trkpt>
      <trkpt lat="43.379752" lon="-3.802400">
        <ele>164.65</ele>
        <time>2019-02-03T08:25:55Z</time>
      </trkpt>
      <trkpt lat="43.379721" lon="-3.802408">
        <ele>164.85</ele>
        <time>2019-02-03T08:25:58Z</time>
      </trkpt>
      <trkpt lat="43.379703" lon="-3.802417">
        <ele>165.26</ele>
        <time>2019-02-03T08:26:00Z</time>
      </trkpt>
      <trkpt lat="43.379679" lon="-3.802432">
        <ele>165.82</ele>
        <time>2019-02-03T08:26:02Z</time>
      </trkpt>
      <trkpt lat="43.379650" lon="-3.802439">
        <ele>166.61</ele>
        <time>2019-02-03T08:26:04Z</time>
      </trkpt>
      <trkpt lat="43.379559" lon="-3.802449">
        <ele>232.05</ele>
        <time>2015-10-28T12:42:34Z</time>
      </trkpt>
      <trkpt lat="43.379541" lon="-3.802324">
        <ele>233.01</ele>
        <time>2015-10-28T12:42:37Z</time>
      </trkpt>
      <trkpt lat="43.379512" lon="-3.802171">
        <ele>230.03</ele>
        <time>2015-10-28T12:42:41Z</time>
      </trkpt>
      <trkpt lat="43.379497" lon="-3.802026">
        <ele>233.01</ele>
        <time>2015-10-28T12:42:45Z</time>
      </trkpt>
      <trkpt lat="43.379506" lon="-3.801898">
        <ele>235.08</ele>
        <time>2015-10-28T12:42:48Z</time>
      </trkpt>
      <trkpt lat="43.379548" lon="-3.801782">
        <ele>238.03</ele>
        <time>2015-10-28T12:42:53Z</time>
      </trkpt>
      <trkpt lat="43.379628" lon="-3.801701">
        <ele>246.07</ele>
        <time>2015-10-28T12:42:58Z</time>
      </trkpt>
      <trkpt lat="43.379674" lon="-3.801557">
        <ele>246.03</ele>
        <time>2015-10-28T12:43:03Z</time>
      </trkpt>
      <trkpt lat="43.379718" lon="-3.801441">
        <ele>244.07</ele>
        <time>2015-10-28T12:43:06Z</time>
      </trkpt>
      <trkpt lat="43.379762" lon="-3.801327">
        <ele>241.06</ele>
        <time>2015-10-28T12:43:09Z</time>
      </trkpt>
      <trkpt lat="43.379836" lon="-3.801197">
        <ele>242.01</ele>
        <time>2015-10-28T12:43:14Z</time>
      </trkpt>
      <trkpt lat="43.379880" lon="-3.801068">
        <ele>241.05</ele>
        <time>2015-10-28T12:43:18Z</time>
      </trkpt>
      <trkpt lat="43.379899" lon="-3.800917">
        <ele>244.08</ele>
        <time>2015-10-28T12:43:22Z</time>
      </trkpt>
      <trkpt lat="43.379919" lon="-3.800780">
        <ele>242.01</ele>
        <time>2015-10-28T12:43:25Z</time>
      </trkpt>
      <trkpt lat="43.379945" lon="-3.800644">
        <ele>243.03</ele>
        <time>2015-10-28T12:43:28Z</time>
      </trkpt>
      <trkpt lat="43.379951" lon="-3.800511">
        <ele>242.02</ele>
        <time>2015-10-28T12:43:31Z</time>
      </trkpt>
      <trkpt lat="43.379932" lon="-3.800376">
        <ele>248.09</ele>
        <time>2015-10-28T12:43:34Z</time>
      </trkpt>
      <trkpt lat="43.379915" lon="-3.800243">
        <ele>248.04</ele>
        <time>2015-10-28T12:43:37Z</time>
      </trkpt>
      <trkpt lat="43.379892" lon="-3.800096">
        <ele>249.05</ele>
        <time>2015-10-28T12:43:41Z</time>
      </trkpt>
      <trkpt lat="43.379866" lon="-3.799958">
        <ele>250.03</ele>
        <time>2015-10-28T12:43:44Z</time>
      </trkpt>
      <trkpt lat="43.379783" lon="-3.799868">
        <ele>256.04</ele>
        <time>2015-10-28T12:43:48Z</time>
      </trkpt>
      <trkpt lat="43.379686" lon="-3.799944">
        <ele>257.02</ele>
        <time>2015-10-28T12:43:52Z</time>
      </trkpt>
      <trkpt lat="43.379629" lon="-3.800074">
        <ele>257.02</ele>
        <time>2015-10-28T12:43:56Z</time>
      </trkpt>
      <trkpt lat="43.379550" lon="-3.800153">
        <ele>268.02</ele>
        <time>2015-10-28T12:44:03Z</time>
      </trkpt>
      <trkpt lat="43.379551" lon="-3.800024">
        <ele>271.08</ele>
        <time>2015-10-28T12:44:06Z</time>
      </trkpt>
      <trkpt lat="43.379553" lon="-3.799859">
        <ele>274.01</ele>
        <time>2015-10-28T12:44:10Z</time>
      </trkpt>
      <trkpt lat="43.379527" lon="-3.799706">
        <ele>275.02</ele>
        <time>2015-10-28T12:44:16Z</time>
      </trkpt>
      <trkpt lat="43.379515" lon="-3.799561">
        <ele>276.03</ele>
        <time>2015-10-28T12:44:21Z</time>
      </trkpt>
      <trkpt lat="43.379512" lon="-3.799422">
        <ele>277.07</ele>
        <time>2015-10-28T12:44:24Z</time>
      </trkpt>
      <trkpt lat="43.379526" lon="-3.799274">
        <ele>278.03</ele>
        <time>2015-10-28T12:44:27Z</time>
      </trkpt>
      <trkpt lat="43.379538" lon="-3.799133">
        <ele>279.02</ele>
        <time>2015-10-28T12:44:30Z</time>
      </trkpt>
      <trkpt lat="43.379571" lon="-3.798984">
        <ele>281.10</ele>
        <time>2015-10-28T12:44:33Z</time>
      </trkpt>
      <trkpt lat="43.379614" lon="-3.798847">
        <ele>279.08</ele>
        <time>2015-10-28T12:44:36Z</time>
      </trkpt>
      <trkpt lat="43.379631" lon="-3.798694">
        <ele>280.03</ele>
        <time>2015-10-28T12:44:40Z</time>
      </trkpt>
      <trkpt lat="43.379625" lon="-3.798550">
        <ele>285.02</ele>
        <time>2015-10-28T12:44:44Z</time>
      </trkpt>
      <trkpt lat="43.379617" lon="-3.798404">
        <ele>291.02</ele>
        <time>2015-10-28T12:44:48Z</time>
      </trkpt>
      <trkpt lat="43.379618" lon="-3.798272">
        <ele>301.07</ele>
        <time>2015-10-28T12:44:53Z</time>
      </trkpt>
      <trkpt lat="43.379601" lon="-3.798148">
        <ele>303.01</ele>
        <time>2015-10-28T12:44:56Z</time>
      </trkpt>
      <trkpt lat="43.379606" lon="-3.797998">
        <ele>302.01</ele>
        <time>2015-10-28T12:45:00Z</time>
      </trkpt>
      <trkpt lat="43.379600" lon="-3.797849">
        <ele>305.05</ele>
        <time>2015-10-28T12:45:04Z</time>
      </trkpt>
      <trkpt lat="43.379599" lon="-3.797688">
        <ele>302.03</ele>
        <time>2015-10-28T12:45:08Z</time>
      </trkpt>
      <trkpt lat="43.379597" lon="-3.797539">
        <ele>307.04</ele>
        <time>2015-10-28T12:45:12Z</time>
      </trkpt>
      <trkpt lat="43.379584" lon="-3.797384">
        <ele>314.10</ele>
        <time>2015-10-28T12:45:16Z</time>
      </trkpt>
      <trkpt lat="43.379559" lon="-3.797259">
        <ele>310.02</ele>
        <time>2015-10-28T12:45:20Z</time>
      </trkpt>
      <trkpt lat="43.379555" lon="-3.797130">
        <ele>311.03</ele>
        <time>2015-10-28T12:45:24Z</time>
      </trkpt>
      <trkpt lat="43.379583" lon="-3.796976">
        <ele>315.02</ele>
        <time>2015-10-28T12:45:28Z</time>
      </trkpt>
      <trkpt lat="43.379589" lon="-3.796851">
        <ele>315.05</ele>
        <time>2015-10-28T12:45:32Z</time>
      </trkpt>
      <trkpt lat="43.379569" lon="-3.796705">
        <ele>317.07</ele>
        <time>2015-10-28T12:45:37Z</time>
      </trkpt>
      <trkpt lat="43.379564" lon="-3.796548">
        <ele>315.07</ele>
        <time>2015-10-28T12:45:41Z</time>
      </trkpt>
      <trkpt lat="43.379583" lon="-3.796398">
        <ele>319.01</ele>
        <time>2015-10-28T12:45:44Z</time>
      </trkpt>
      <trkpt lat="43.379597" lon="-3.796269">
        <ele>321.03</ele>
        <time>2015-10-28T12:45:49Z</time>
      </trkpt>
      <trkpt lat="43.379606" lon="-3.796128">
        <ele>320.01</ele>
        <time>2015-10-28T12:45:52Z</time>
      </trkpt>
      <trkpt lat="43.379600" lon="-3.795988">
        <ele>318.10</ele>
        <time>2015-10-28T12:45:57Z</time>
      </trkpt>
      <trkpt lat="43.379642" lon="-3.795854">
        <ele>320.09</ele>
        <time>2015-10-28T12:46:00Z</time>
      </trkpt>
      <trkpt lat="43.379653" lon="-3.795666">
        <ele>317.02</ele>
        <time>2015-10-28T12:46:03Z</time>
      </trkpt>
      <trkpt lat="43.379653" lon="-3.795517">
        <ele>319.01</ele>
        <time>2015-10-28T12:46:07Z</time>
      </trkpt>
      <trkpt lat="43.379661" lon="-3.795388">
        <ele>317.08</ele>
        <time>2015-10-28T12:46:11Z</time>
      </trkpt>
      <trkpt lat="43.379673" lon="-3.795245">
        <ele>317.04</ele>
        <time>2015-10-28T12:46:14Z</time>
      </trkpt>
      <trkpt lat="43.379676" lon="-3.795095">
        <ele>320.07</ele>
        <time>2015-10-28T12:46:18Z</time>
      </trkpt>
      <trkpt lat="43.379687" lon="-3.794947">
        <ele>322.07</ele>
        <time>2015-10-28T12:46:22Z</time>
      </trkpt>
      <trkpt lat="43.379702" lon="-3.794797">
        <ele>320.09</ele>
        <time>2015-10-28T12:46:26Z</time>
      </trkpt>
      <trkpt lat="43.379720" lon="-3.794644">
        <ele>322.01</ele>
        <time>2015-10-28T12:46:31Z</time>
      </trkpt>
      <trkpt lat="43.379747" lon="-3.794486">
        <ele>324.02</ele>
        <time>2015-10-28T12:46:35Z</time>
      </trkpt>
      <trkpt lat="43.379765" lon="-3.794329">
        <ele>325.09</ele>
        <time>2015-10-28T12:46:39Z</time>
      </trkpt>
      <trkpt lat="43.379774" lon="-3.794206">
        <ele>329.08</ele>
        <time>2015-10-28T12:46:43Z</time>
      </trkpt>
      <trkpt lat="43.379792" lon="-3.794055">
        <ele>328.01</ele>
        <time>2015-10-28T12:46:46Z</time>
      </trkpt>
      <trkpt lat="43.379815" lon="-3.793897">
        <ele>328.07</ele>
        <time>2015-10-28T12:46:49Z</time>
      </trkpt>
      <trkpt lat="43.379841" lon="-3.793741">
        <ele>328.06</ele>
        <time>2015-10-28T12:46:53Z</time>
      </trkpt>
      <trkpt lat="43.379859" lon="-3.793583">
        <ele>333.07</ele>
        <time>2015-10-28T12:46:57Z</time>
      </trkpt>
      <trkpt lat="43.379872" lon="-3.793451">
        <ele>334.07</ele>
        <time>2015-10-28T12:47:00Z</time>
      </trkpt>
      <trkpt lat="43.379898" lon="-3.793332">
        <ele>334.06</ele>
        <time>2015-10-28T12:47:02Z</time>
      </trkpt>
      <trkpt lat="43.379898" lon="-3.793202">
        <ele>338.08</ele>
        <time>2015-10-28T12:47:06Z</time>
      </trkpt>
      <trkpt lat="43.379902" lon="-3.793072">
        <ele>340.07</ele>
        <time>2015-10-28T12:47:10Z</time>
      </trkpt>
      <trkpt lat="43.379925" lon="-3.792951">
        <ele>337.01</ele>
        <time>2015-10-28T12:47:15Z</time>
      </trkpt>
      <trkpt lat="43.379952" lon="-3.792831">
        <ele>341.02</ele>
        <time>2015-10-28T12:47:19Z</time>
      </trkpt>
      <trkpt lat="43.379961" lon="-3.792682">
        <ele>344.09</ele>
        <time>2015-10-28T12:47:24Z</time>
      </trkpt>
      <trkpt lat="43.379877" lon="-3.792634">
        <ele>346.08</ele>
        <time>2015-10-28T12:47:29Z</time>
      </trkpt>
      <trkpt lat="43.379773" lon="-3.792703">
        <ele>347.03</ele>
        <time>2015-10-28T12:47:33Z</time>
      </trkpt>
      <trkpt lat="43.379720" lon="-3.792814">
        <ele>349.05</ele>
        <time>2015-10-28T12:47:37Z</time>
      </trkpt>
      <trkpt lat="43.379657" lon="-3.792906">
        <ele>347.04</ele>
        <time>2015-10-28T12:47:42Z</time>
      </trkpt>
      <trkpt lat="43.379585" lon="-3.793012">
        <ele>348.05</ele>
        <time>2015-10-28T12:47:46Z</time>
      </trkpt>
      <trkpt lat="43.379500" lon="-3.793115">
        <ele>346.03</ele>
        <time>2015-10-28T12:47:49Z</time>
      </trkpt>
      <trkpt lat="43.379432" lon="-3.793240">
        <ele>344.05</ele>
        <time>2015-10-28T12:47:52Z</time>
      </trkpt>
      <trkpt lat="43.379347" lon="-3.793339">
        <ele>345.07</ele>
        <time>2015-10-28T12:47:56Z</time>
      </trkpt>
      <trkpt lat="43.379250" lon="-3.793407">
        <ele>345.08</ele>
        <time>2015-10-28T12:48:00Z</time>
      </trkpt>
      <trkpt lat="43.379164" lon="-3.793493">
        <ele>349.01</ele>
        <time>2015-10-28T12:48:05Z</time>
      </trkpt>
      <trkpt lat="43.379147" lon="-3.793368">
        <ele>356.02</ele>
        <time>2015-10-28T12:48:11Z</time>
      </trkpt>
      <trkpt lat="43.379128" lon="-3.793248">
        <ele>360.02</ele>
        <time>2015-10-28T12:48:15Z</time>
      </trkpt>
      <trkpt lat="43.379136" lon="-3.793108">
        <ele>359.08</ele>
        <time>2015-10-28T12:48:19Z</time>
      </trkpt>
      <trkpt lat="43.379127" lon="-3.792928">
        <ele>359.09</ele>
        <time>2015-10-28T12:48:23Z</time>
      </trkpt>
      <trkpt lat="43.379137" lon="-3.792791">
        <ele>359.07</ele>
        <time>2015-10-28T12:48:32Z</time>
      </trkpt>
      <trkpt lat="43.379132" lon="-3.792922">
        <ele>358.03</ele>
        <time>2015-10-28T12:48:39Z</time>
      </trkpt>
      <trkpt lat="43.379149" lon="-3.793047">
        <ele>355.02</ele>
        <time>2015-10-28T12:49:02Z</time>
      </trkpt>
      <trkpt lat="43.379139" lon="-3.792924">
        <ele>357.04</ele>
        <time>2015-10-28T12:49:10Z</time>
      </trkpt>
      <trkpt lat="43.379155" lon="-3.792800">
        <ele>356.04</ele>
        <time>2015-10-28T12:49:14Z</time>
      </trkpt>
      <trkpt lat="43.379173" lon="-3.792655">
        <ele>351.09</ele>
        <time>2015-10-28T12:49:18Z</time>
      </trkpt>
      <trkpt lat="43.379203" lon="-3.792510">
        <ele>351.03</ele>
        <time>2015-10-28T12:49:22Z</time>
      </trkpt>
      <trkpt lat="43.379242" lon="-3.792371">
        <ele>353.01</ele>
        <time>2015-10-28T12:49:26Z</time>
      </trkpt>
      <trkpt lat="43.379341" lon="-3.792038">
        <ele>315.28</ele>
        <time>2014-04-09T14:15:30Z</time>
      </trkpt>
      <trkpt lat="43.379566" lon="-3.791675">
        <ele>314.87</ele>
        <time>2014-04-09T14:15:43Z</time>
      </trkpt>
      <trkpt lat="43.379692" lon="-3.791353">
        <ele>314.84</ele>
        <time>2014-04-09T14:15:54Z</time>
      </trkpt>
      <trkpt lat="43.379921" lon="-3.790997">
        <ele>314.89</ele>
        <time>2014-04-09T14:16:05Z</time>
      </trkpt>
      <trkpt lat="43.380207" lon="-3.790627">
        <ele>314.86</ele>
        <time>2014-04-09T14:16:17Z</time>
      </trkpt>
      <trkpt lat="43.380405" lon="-3.790184">
        <ele>314.86</ele>
        <time>2014-04-09T14:16:30Z</time>
      </trkpt>
      <trkpt lat="43.380531" lon="-3.789886">
        <ele>317.25</ele>
        <time>2014-04-09T14:16:39Z</time>
      </trkpt>
      <trkpt lat="43.380569" lon="-3.789789">
        <ele>317.22</ele>
        <time>2014-04-09T14:16:42Z</time>
      </trkpt>
      <trkpt lat="43.380760" lon="-3.789732">
        <ele>313.61</ele>
        <time>2014-04-09T14:16:52Z</time>
      </trkpt>
      <trkpt lat="43.380867" lon="-3.789710">
        <ele>309.69</ele>
        <time>2014-04-09T14:16:57Z</time>
      </trkpt>
      <trkpt lat="43.380981" lon="-3.789658">
        <ele>306.29</ele>
        <time>2014-04-09T14:17:02Z</time>
      </trkpt>
      <trkpt lat="43.381084" lon="-3.789584">
        <ele>302.66</ele>
        <time>2014-04-09T14:17:07Z</time>
      </trkpt>
      <trkpt lat="43.381210" lon="-3.789505">
        <ele>298.85</ele>
        <time>2014-04-09T14:17:12Z</time>
      </trkpt>
      <trkpt lat="43.381283" lon="-3.789389">
        <ele>296.88</ele>
        <time>2014-04-09T14:17:15Z</time>
      </trkpt>
      <trkpt lat="43.381393" lon="-3.789080">
        <ele>295.24</ele>
        <time>2014-04-09T14:17:22Z</time>
      </trkpt>
      <trkpt lat="43.381603" lon="-3.788708">
        <ele>292.42</ele>
        <time>2014-04-09T14:17:34Z</time>
      </trkpt>
      <trkpt lat="43.381882" lon="-3.788674">
        <ele>289.07</ele>
        <time>2014-04-09T14:17:43Z</time>
      </trkpt>
      <trkpt lat="43.381943" lon="-3.788660">
        <ele>288.27</ele>
        <time>2014-04-09T14:17:45Z</time>
      </trkpt>
      <trkpt lat="43.382221" lon="-3.788626">
        <ele>285.21</ele>
        <time>2014-04-09T14:17:54Z</time>
      </trkpt>
      <trkpt lat="43.382332" lon="-3.788596">
        <ele>282.61</ele>
        <time>2014-04-09T14:17:57Z</time>
      </trkpt>
      <trkpt lat="43.382607" lon="-3.788473">
        <ele>278.49</ele>
        <time>2014-04-09T14:18:05Z</time>
      </trkpt>
      <trkpt lat="43.382748" lon="-3.788421">
        <ele>275.05</ele>
        <time>2014-04-09T14:18:09Z</time>
      </trkpt>
      <trkpt lat="43.382893" lon="-3.788378">
        <ele>271.89</ele>
        <time>2014-04-09T14:18:14Z</time>
      </trkpt>
      <trkpt lat="43.383068" lon="-3.788362">
        <ele>268.42</ele>
        <time>2014-04-09T14:18:19Z</time>
      </trkpt>
      <trkpt lat="43.383224" lon="-3.788378">
        <ele>264.82</ele>
        <time>2014-04-09T14:18:24Z</time>
      </trkpt>
      <trkpt lat="43.383396" lon="-3.788398">
        <ele>261.69</ele>
        <time>2014-04-09T14:18:29Z</time>
      </trkpt>
      <trkpt lat="43.383438" lon="-3.788398">
        <ele>260.63</ele>
        <time>2014-04-09T14:18:30Z</time>
      </trkpt>
      <trkpt lat="43.383720" lon="-3.788275">
        <ele>256.82</ele>
        <time>2014-04-09T14:18:38Z</time>
      </trkpt>
      <trkpt lat="43.383991" lon="-3.787914">
        <ele>256.40</ele>
        <time>2014-04-09T14:18:49Z</time>
      </trkpt>
      <trkpt lat="43.384212" lon="-3.787574">
        <ele>256.01</ele>
        <time>2014-04-09T14:19:00Z</time>
      </trkpt>
      <trkpt lat="43.384506" lon="-3.787126">
        <ele>253.41</ele>
        <time>2014-04-09T14:19:13Z</time>
      </trkpt>
      <trkpt lat="43.384564" lon="-3.786891">
        <ele>303.07</ele>
        <time>2015-10-28T12:06:24Z</time>
      </trkpt>
      <trkpt lat="43.384564" lon="-3.786753">
        <ele>308.03</ele>
        <time>2015-10-28T12:06:28Z</time>
      </trkpt>
      <trkpt lat="43.384601" lon="-3.786622">
        <ele>308.08</ele>
        <time>2015-10-28T12:06:31Z</time>
      </trkpt>
      <trkpt lat="43.384640" lon="-3.786489">
        <ele>310.10</ele>
        <time>2015-10-28T12:06:35Z</time>
      </trkpt>
      <trkpt lat="43.384679" lon="-3.786338">
        <ele>312.04</ele>
        <time>2015-10-28T12:06:39Z</time>
      </trkpt>
      <trkpt lat="43.384717" lon="-3.786187">
        <ele>314.07</ele>
        <time>2015-10-28T12:06:43Z</time>
      </trkpt>
      <trkpt lat="43.384746" lon="-3.786061">
        <ele>314.03</ele>
        <time>2015-10-28T12:06:47Z</time>
      </trkpt>
      <trkpt lat="43.384825" lon="-3.785950">
        <ele>317.04</ele>
        <time>2015-10-28T12:06:51Z</time>
      </trkpt>
      <trkpt lat="43.384906" lon="-3.785836">
        <ele>318.01</ele>
        <time>2015-10-28T12:06:55Z</time>
      </trkpt>
      <trkpt lat="43.384967" lon="-3.785698">
        <ele>324.02</ele>
        <time>2015-10-28T12:06:59Z</time>
      </trkpt>
      <trkpt lat="43.385019" lon="-3.785584">
        <ele>323.04</ele>
        <time>2015-10-28T12:07:02Z</time>
      </trkpt>
      <trkpt lat="43.385077" lon="-3.785450">
        <ele>324.06</ele>
        <time>2015-10-28T12:07:06Z</time>
      </trkpt>
      <trkpt lat="43.385138" lon="-3.785328">
        <ele>327.04</ele>
        <time>2015-10-28T12:07:10Z</time>
      </trkpt>
      <trkpt lat="43.385208" lon="-3.785202">
        <ele>328.04</ele>
        <time>2015-10-28T12:07:14Z</time>
      </trkpt>
      <trkpt lat="43.385294" lon="-3.785093">
        <ele>331.07</ele>
        <time>2015-10-28T12:07:18Z</time>
      </trkpt>
      <trkpt lat="43.385365" lon="-3.785011">
        <ele>330.02</ele>
        <time>2015-10-28T12:07:22Z</time>
      </trkpt>
      <trkpt lat="43.385418" lon="-3.784878">
        <ele>332.09</ele>
        <time>2015-10-28T12:07:26Z</time>
      </trkpt>
      <trkpt lat="43.385423" lon="-3.784728">
        <ele>336.05</ele>
        <time>2015-10-28T12:07:31Z</time>
      </trkpt>
      <trkpt lat="43.385410" lon="-3.784604">
        <ele>338.01</ele>
        <time>2015-10-28T12:07:36Z</time>
      </trkpt>
      <trkpt lat="43.385403" lon="-3.784449">
        <ele>342.01</ele>
        <time>2015-10-28T12:07:44Z</time>
      </trkpt>
      <trkpt lat="43.385385" lon="-3.784320">
        <ele>343.01</ele>
        <time>2015-10-28T12:07:49Z</time>
      </trkpt>
      <trkpt lat="43.385368" lon="-3.784182">
        <ele>346.03</ele>
        <time>2015-10-28T12:07:53Z</time>
      </trkpt>
      <trkpt lat="43.385367" lon="-3.784055">
        <ele>347.01</ele>
        <time>2015-10-28T12:07:57Z</time>
      </trkpt>
      <trkpt lat="43.385377" lon="-3.783929">
        <ele>349.10</ele>
        <time>2015-10-28T12:08:01Z</time>
      </trkpt>
      <trkpt lat="43.385404" lon="-3.783791">
        <ele>353.07</ele>
        <time>2015-10-28T12:08:05Z</time>
      </trkpt>
      <trkpt lat="43.385445" lon="-3.783650">
        <ele>354.02</ele>
        <time>2015-10-28T12:08:09Z</time>
      </trkpt>
      <trkpt lat="43.385469" lon="-3.783496">
        <ele>357.01</ele>
        <time>2015-10-28T12:08:13Z</time>
      </trkpt>
      <trkpt lat="43.385478" lon="-3.783334">
        <ele>359.04</ele>
        <time>2015-10-28T12:08:17Z</time>
      </trkpt>
      <trkpt lat="43.385489" lon="-3.783191">
        <ele>361.05</ele>
        <time>2015-10-28T12:08:22Z</time>
      </trkpt>
      <trkpt lat="43.385488" lon="-3.783045">
        <ele>366.01</ele>
        <time>2015-10-28T12:08:26Z</time>
      </trkpt>
      <trkpt lat="43.385497" lon="-3.782919">
        <ele>369.05</ele>
        <time>2015-10-28T12:08:29Z</time>
      </trkpt>
      <trkpt lat="43.385512" lon="-3.782769">
        <ele>371.09</ele>
        <time>2015-10-28T12:08:32Z</time>
      </trkpt>
      <trkpt lat="43.385527" lon="-3.782603">
        <ele>372.01</ele>
        <time>2015-10-28T12:08:36Z</time>
      </trkpt>
      <trkpt lat="43.385546" lon="-3.782449">
        <ele>376.02</ele>
        <time>2015-10-28T12:08:40Z</time>
      </trkpt>
      <trkpt lat="43.385563" lon="-3.782326">
        <ele>378.06</ele>
        <time>2015-10-28T12:08:43Z</time>
      </trkpt>
      <trkpt lat="43.385540" lon="-3.782191">
        <ele>383.09</ele>
        <time>2015-10-28T12:08:47Z</time>
      </trkpt>
      <trkpt lat="43.385564" lon="-3.782033">
        <ele>387.10</ele>
        <time>2015-10-28T12:08:58Z</time>
      </trkpt>
      <trkpt lat="43.385608" lon="-3.781889">
        <ele>389.03</ele>
        <time>2015-10-28T12:09:02Z</time>
      </trkpt>
      <trkpt lat="43.385654" lon="-3.781739">
        <ele>390.02</ele>
        <time>2015-10-28T12:09:06Z</time>
      </trkpt>
      <trkpt lat="43.385656" lon="-3.781586">
        <ele>391.01</ele>
        <time>2015-10-28T12:09:10Z</time>
      </trkpt>
      <trkpt lat="43.385631" lon="-3.781435">
        <ele>393.01</ele>
        <time>2015-10-28T12:09:14Z</time>
      </trkpt>
      <trkpt lat="43.385618" lon="-3.781280">
        <ele>392.03</ele>
        <time>2015-10-28T12:09:19Z</time>
      </trkpt>
      <trkpt lat="43.385615" lon="-3.781121">
        <ele>394.03</ele>
        <time>2015-10-28T12:09:23Z</time>
      </trkpt>
      <trkpt lat="43.385616" lon="-3.780994">
        <ele>394.01</ele>
        <time>2015-10-28T12:09:26Z</time>
      </trkpt>
      <trkpt lat="43.385623" lon="-3.780833">
        <ele>395.01</ele>
        <time>2015-10-28T12:09:30Z</time>
      </trkpt>
      <trkpt lat="43.385624" lon="-3.780709">
        <ele>395.02</ele>
        <time>2015-10-28T12:09:33Z</time>
      </trkpt>
      <trkpt lat="43.385617" lon="-3.780582">
        <ele>396.07</ele>
        <time>2015-10-28T12:09:36Z</time>
      </trkpt>
      <trkpt lat="43.385620" lon="-3.780458">
        <ele>399.09</ele>
        <time>2015-10-28T12:09:39Z</time>
      </trkpt>
      <trkpt lat="43.385637" lon="-3.780303">
        <ele>399.06</ele>
        <time>2015-10-28T12:09:43Z</time>
      </trkpt>
      <trkpt lat="43.385612" lon="-3.780163">
        <ele>401.10</ele>
        <time>2015-10-28T12:09:46Z</time>
      </trkpt>
      <trkpt lat="43.385582" lon="-3.780024">
        <ele>403.05</ele>
        <time>2015-10-28T12:09:50Z</time>
      </trkpt>
      <trkpt lat="43.385565" lon="-3.779874">
        <ele>405.09</ele>
        <time>2015-10-28T12:09:54Z</time>
      </trkpt>
      <trkpt lat="43.385567" lon="-3.779720">
        <ele>406.05</ele>
        <time>2015-10-28T12:09:58Z</time>
      </trkpt>
      <trkpt lat="43.385581" lon="-3.779575">
        <ele>407.02</ele>
        <time>2015-10-28T12:10:02Z</time>
      </trkpt>
      <trkpt lat="43.385587" lon="-3.779427">
        <ele>410.08</ele>
        <time>2015-10-28T12:10:06Z</time>
      </trkpt>
      <trkpt lat="43.385636" lon="-3.779289">
        <ele>408.01</ele>
        <time>2015-10-28T12:10:10Z</time>
      </trkpt>
      <trkpt lat="43.385691" lon="-3.779163">
        <ele>409.01</ele>
        <time>2015-10-28T12:10:14Z</time>
      </trkpt>
      <trkpt lat="43.385752" lon="-3.779040">
        <ele>408.02</ele>
        <time>2015-10-28T12:10:18Z</time>
      </trkpt>
      <trkpt lat="43.385795" lon="-3.778908">
        <ele>409.05</ele>
        <time>2015-10-28T12:10:23Z</time>
      </trkpt>
      <trkpt lat="43.385829" lon="-3.778775">
        <ele>410.10</ele>
        <time>2015-10-28T12:10:27Z</time>
      </trkpt>
      <trkpt lat="43.385893" lon="-3.778668">
        <ele>410.02</ele>
        <time>2015-10-28T12:10:31Z</time>
      </trkpt>
      <trkpt lat="43.385948" lon="-3.778554">
        <ele>410.03</ele>
        <time>2015-10-28T12:10:35Z</time>
      </trkpt>
      <trkpt lat="43.385983" lon="-3.778421">
        <ele>410.06</ele>
        <time>2015-10-28T12:10:39Z</time>
      </trkpt>
      <trkpt lat="43.386000" lon="-3.778290">
        <ele>410.02</ele>
        <time>2015-10-28T12:10:43Z</time>
      </trkpt>
      <trkpt lat="43.386018" lon="-3.778157">
        <ele>411.04</ele>
        <time>2015-10-28T12:10:47Z</time>
      </trkpt>
      <trkpt lat="43.386037" lon="-3.778018">
        <ele>409.06</ele>
        <time>2015-10-28T12:10:50Z</time>
      </trkpt>
      <trkpt lat="43.386052" lon="-3.777881">
        <ele>408.09</ele>
        <time>2015-10-28T12:10:54Z</time>
      </trkpt>
      <trkpt lat="43.386067" lon="-3.777747">
        <ele>409.02</ele>
        <time>2015-10-28T12:10:58Z</time>
      </trkpt>
      <trkpt lat="43.386082" lon="-3.777605">
        <ele>409.01</ele>
        <time>2015-10-28T12:11:02Z</time>
      </trkpt>
      <trkpt lat="43.386090" lon="-3.777463">
        <ele>408.02</ele>
        <time>2015-10-28T12:11:06Z</time>
      </trkpt>
      <trkpt lat="43.386106" lon="-3.777325">
        <ele>408.00</ele>
        <time>2015-10-28T12:11:10Z</time>
      </trkpt>
      <trkpt lat="43.386117" lon="-3.777186">
        <ele>408.04</ele>
        <time>2015-10-28T12:11:14Z</time>
      </trkpt>
      <trkpt lat="43.386126" lon="-3.777044">
        <ele>409.08</ele>
        <time>2015-10-28T12:11:18Z</time>
      </trkpt>
      <trkpt lat="43.386119" lon="-3.776903">
        <ele>409.08</ele>
        <time>2015-10-28T12:11:22Z</time>
      </trkpt>
      <trkpt lat="43.386120" lon="-3.776769">
        <ele>409.09</ele>
        <time>2015-10-28T12:11:26Z</time>
      </trkpt>
      <trkpt lat="43.386116" lon="-3.776635">
        <ele>410.01</ele>
        <time>2015-10-28T12:11:31Z</time>
      </trkpt>
      <trkpt lat="43.386101" lon="-3.776492">
        <ele>411.07</ele>
        <time>2015-10-28T12:11:34Z</time>
      </trkpt>
      <trkpt lat="43.386094" lon="-3.776353">
        <ele>413.07</ele>
        <time>2015-10-28T12:11:39Z</time>
      </trkpt>
      <trkpt lat="43.386093" lon="-3.776210">
        <ele>413.01</ele>
        <time>2015-10-28T12:11:43Z</time>
      </trkpt>
      <trkpt lat="43.386093" lon="-3.776069">
        <ele>414.04</ele>
        <time>2015-10-28T12:11:47Z</time>
      </trkpt>
      <trkpt lat="43.386107" lon="-3.775914">
        <ele>415.01</ele>
        <time>2015-10-28T12:11:51Z</time>
      </trkpt>
      <trkpt lat="43.386123" lon="-3.775748">
        <ele>416.01</ele>
        <time>2015-10-28T12:11:55Z</time>
      </trkpt>
      <trkpt lat="43.386149" lon="-3.775621">
        <ele>418.05</ele>
        <time>2015-10-28T12:12:00Z</time>
      </trkpt>
      <trkpt lat="43.386165" lon="-3.775479">
        <ele>418.03</ele>
        <time>2015-10-28T12:12:05Z</time>
      </trkpt>
      <trkpt lat="43.386164" lon="-3.775355">
        <ele>419.02</ele>
        <time>2015-10-28T12:12:10Z</time>
      </trkpt>
      <trkpt lat="43.386119" lon="-3.775222">
        <ele>422.01</ele>
        <time>2015-10-28T12:12:17Z</time>
      </trkpt>
      <trkpt lat="43.386115" lon="-3.775087">
        <ele>422.08</ele>
        <time>2015-10-28T12:12:22Z</time>
      </trkpt>
      <trkpt lat="43.386094" lon="-3.774944">
        <ele>424.07</ele>
        <time>2015-10-28T12:12:27Z</time>
      </trkpt>
      <trkpt lat="43.386070" lon="-3.774825">
        <ele>427.07</ele>
        <time>2015-10-28T12:12:31Z</time>
      </trkpt>
      <trkpt lat="43.386042" lon="-3.774679">
        <ele>428.07</ele>
        <time>2015-10-28T12:12:36Z</time>
      </trkpt>
      <trkpt lat="43.385988" lon="-3.774571">
        <ele>432.09</ele>
        <time>2015-10-28T12:12:43Z</time>
      </trkpt>
      <trkpt lat="43.385937" lon="-3.774466">
        <ele>436.09</ele>
        <time>2015-10-28T12:12:49Z</time>
      </trkpt>
      <trkpt lat="43.385891" lon="-3.774340">
        <ele>437.01</ele>
        <time>2015-10-28T12:12:56Z</time>
      </trkpt>
      <trkpt lat="43.385871" lon="-3.774197">
        <ele>435.01</ele>
        <time>2015-10-28T12:13:01Z</time>
      </trkpt>
      <trkpt lat="43.385810" lon="-3.774085">
        <ele>435.06</ele>
        <time>2015-10-28T12:13:07Z</time>
      </trkpt>
      <trkpt lat="43.385788" lon="-3.773941">
        <ele>438.03</ele>
        <time>2015-10-28T12:13:12Z</time>
      </trkpt>
      <trkpt lat="43.385730" lon="-3.773839">
        <ele>440.08</ele>
        <time>2015-10-28T12:13:26Z</time>
      </trkpt>
      <trkpt lat="43.385688" lon="-3.773709">
        <ele>446.07</ele>
        <time>2015-10-28T12:13:35Z</time>
      </trkpt>
      <trkpt lat="43.385620" lon="-3.773610">
        <ele>450.09</ele>
        <time>2015-10-28T12:13:46Z</time>
      </trkpt>
      <trkpt lat="43.385579" lon="-3.773499">
        <ele>450.09</ele>
        <time>2015-10-28T12:13:54Z</time>
      </trkpt>
      <trkpt lat="43.385547" lon="-3.773375">
        <ele>451.03</ele>
        <time>2015-10-28T12:14:02Z</time>
      </trkpt>
      <trkpt lat="43.385544" lon="-3.773250">
        <ele>450.06</ele>
        <time>2015-10-28T12:14:09Z</time>
      </trkpt>
      <trkpt lat="43.385507" lon="-3.773124">
        <ele>452.10</ele>
        <time>2015-10-28T12:14:15Z</time>
      </trkpt>
      <trkpt lat="43.385508" lon="-3.772992">
        <ele>451.04</ele>
        <time>2015-10-28T12:14:21Z</time>
      </trkpt>
      <trkpt lat="43.385494" lon="-3.772864">
        <ele>452.01</ele>
        <time>2015-10-28T12:14:33Z</time>
      </trkpt>
      <trkpt lat="43.385441" lon="-3.772762">
        <ele>451.01</ele>
        <time>2015-10-28T12:14:39Z</time>
      </trkpt>
      <trkpt lat="43.385408" lon="-3.772635">
        <ele>454.07</ele>
        <time>2015-10-28T12:14:45Z</time>
      </trkpt>
      <trkpt lat="43.385420" lon="-3.772512">
        <ele>454.07</ele>
        <time>2015-10-28T12:14:49Z</time>
      </trkpt>
      <trkpt lat="43.385455" lon="-3.772368">
        <ele>454.08</ele>
        <time>2015-10-28T12:14:54Z</time>
      </trkpt>
      <trkpt lat="43.385470" lon="-3.772243">
        <ele>455.06</ele>
        <time>2015-10-28T12:14:59Z</time>
      </trkpt>
      <trkpt lat="43.385504" lon="-3.772098">
        <ele>455.07</ele>
        <time>2015-10-28T12:15:04Z</time>
      </trkpt>
      <trkpt lat="43.385522" lon="-3.771975">
        <ele>455.04</ele>
        <time>2015-10-28T12:15:09Z</time>
      </trkpt>
      <trkpt lat="43.385546" lon="-3.771838">
        <ele>454.05</ele>
        <time>2015-10-28T12:15:14Z</time>
      </trkpt>
      <trkpt lat="43.385540" lon="-3.771703">
        <ele>456.10</ele>
        <time>2015-10-28T12:15:19Z</time>
      </trkpt>
      <trkpt lat="43.385553" lon="-3.771559">
        <ele>462.08</ele>
        <time>2015-10-28T12:15:25Z</time>
      </trkpt>
      <trkpt lat="43.385556" lon="-3.771423">
        <ele>464.08</ele>
        <time>2015-10-28T12:15:32Z</time>
      </trkpt>
      <trkpt lat="43.385526" lon="-3.771304">
        <ele>466.01</ele>
        <time>2015-10-28T12:15:37Z</time>
      </trkpt>
      <trkpt lat="43.385483" lon="-3.771169">
        <ele>466.01</ele>
        <time>2015-10-28T12:15:44Z</time>
      </trkpt>
      <trkpt lat="43.385412" lon="-3.771082">
        <ele>465.09</ele>
        <time>2015-10-28T12:15:51Z</time>
      </trkpt>
      <trkpt lat="43.385316" lon="-3.771097">
        <ele>465.04</ele>
        <time>2015-10-28T12:15:59Z</time>
      </trkpt>
      <trkpt lat="43.385221" lon="-3.771141">
        <ele>466.05</ele>
        <time>2015-10-28T12:16:09Z</time>
      </trkpt>
      <trkpt lat="43.385124" lon="-3.771140">
        <ele>465.08</ele>
        <time>2015-10-28T12:16:15Z</time>
      </trkpt>
      <trkpt lat="43.385021" lon="-3.771135">
        <ele>464.01</ele>
        <time>2015-10-28T12:16:24Z</time>
      </trkpt>
      <trkpt lat="43.384964" lon="-3.771239">
        <ele>461.08</ele>
        <time>2015-10-28T12:16:32Z</time>
      </trkpt>
      <trkpt lat="43.384900" lon="-3.771331">
        <ele>463.09</ele>
        <time>2015-10-28T12:16:38Z</time>
      </trkpt>
      <trkpt lat="43.384805" lon="-3.771316">
        <ele>463.09</ele>
        <time>2015-10-28T12:16:46Z</time>
      </trkpt>
      <trkpt lat="43.384707" lon="-3.771297">
        <ele>459.04</ele>
        <time>2015-10-28T12:16:50Z</time>
      </trkpt>
      <trkpt lat="43.384616" lon="-3.771320">
        <ele>460.10</ele>
        <time>2015-10-28T12:16:54Z</time>
      </trkpt>
      <trkpt lat="43.384532" lon="-3.771278">
        <ele>458.01</ele>
        <time>2015-10-28T12:17:01Z</time>
      </trkpt>
      <trkpt lat="43.384430" lon="-3.771257">
        <ele>458.02</ele>
        <time>2015-10-28T12:17:08Z</time>
      </trkpt>
      <trkpt lat="43.384338" lon="-3.771260">
        <ele>458.02</ele>
        <time>2015-10-28T12:17:13Z</time>
      </trkpt>
      <trkpt lat="43.384239" lon="-3.771209">
        <ele>462.08</ele>
        <time>2015-10-28T12:17:18Z</time>
      </trkpt>
      <trkpt lat="43.384145" lon="-3.771323">
        <ele>463.07</ele>
        <time>2015-10-28T12:17:23Z</time>
      </trkpt>
      <trkpt lat="43.384081" lon="-3.771433">
        <ele>461.01</ele>
        <time>2015-10-28T12:17:27Z</time>
      </trkpt>
      <trkpt lat="43.384060" lon="-3.771557">
        <ele>462.02</ele>
        <time>2015-10-28T12:17:32Z</time>
      </trkpt>
      <trkpt lat="43.384085" lon="-3.771686">
        <ele>463.06</ele>
        <time>2015-10-28T12:17:36Z</time>
      </trkpt>
      <trkpt lat="43.384092" lon="-3.771810">
        <ele>461.10</ele>
        <time>2015-10-28T12:17:40Z</time>
      </trkpt>
      <trkpt lat="43.384045" lon="-3.771937">
        <ele>459.04</ele>
        <time>2015-10-28T12:17:45Z</time>
      </trkpt>
      <trkpt lat="43.384027" lon="-3.772066">
        <ele>460.09</ele>
        <time>2015-10-28T12:17:50Z</time>
      </trkpt>
      <trkpt lat="43.383995" lon="-3.772200">
        <ele>464.06</ele>
        <time>2015-10-28T12:17:56Z</time>
      </trkpt>
      <trkpt lat="43.383919" lon="-3.772278">
        <ele>464.01</ele>
        <time>2015-10-28T12:18:01Z</time>
      </trkpt>
      <trkpt lat="43.383842" lon="-3.772362">
        <ele>463.01</ele>
        <time>2015-10-28T12:18:07Z</time>
      </trkpt>
      <trkpt lat="43.383788" lon="-3.772480">
        <ele>458.08</ele>
        <time>2015-10-28T12:18:12Z</time>
      </trkpt>
      <trkpt lat="43.383733" lon="-3.772590">
        <ele>460.07</ele>
        <time>2015-10-28T12:18:17Z</time>
      </trkpt>
      <trkpt lat="43.383702" lon="-3.772714">
        <ele>463.04</ele>
        <time>2015-10-28T12:18:22Z</time>
      </trkpt>
      <trkpt lat="43.383642" lon="-3.772834">
        <ele>462.02</ele>
        <time>2015-10-28T12:18:28Z</time>
      </trkpt>
      <trkpt lat="43.383561" lon="-3.772911">
        <ele>463.02</ele>
        <time>2015-10-28T12:18:35Z</time>
      </trkpt>
      <trkpt lat="43.383463" lon="-3.772876">
        <ele>463.06</ele>
        <time>2015-10-28T12:18:39Z</time>
      </trkpt>
      <trkpt lat="43.383376" lon="-3.772807">
        <ele>461.01</ele>
        <time>2015-10-28T12:18:44Z</time>
      </trkpt>
      <trkpt lat="43.383284" lon="-3.772788">
        <ele>465.10</ele>
        <time>2015-10-28T12:18:57Z</time>
      </trkpt>
      <trkpt lat="43.383205" lon="-3.772853">
        <ele>466.08</ele>
        <time>2015-10-28T12:19:07Z</time>
      </trkpt>
      <trkpt lat="43.383176" lon="-3.772981">
        <ele>469.09</ele>
        <time>2015-10-28T12:19:21Z</time>
      </trkpt>
      <trkpt lat="43.383096" lon="-3.773040">
        <ele>471.01</ele>
        <time>2015-10-28T12:19:34Z</time>
      </trkpt>
      <trkpt lat="43.383018" lon="-3.772971">
        <ele>476.01</ele>
        <time>2015-10-28T12:19:44Z</time>
      </trkpt>
      <trkpt lat="43.382919" lon="-3.772968">
        <ele>477.06</ele>
        <time>2015-10-28T12:19:50Z</time>
      </trkpt>
      <trkpt lat="43.382829" lon="-3.772934">
        <ele>480.03</ele>
        <time>2015-10-28T12:20:00Z</time>
      </trkpt>
      <trkpt lat="43.382725" lon="-3.772925">
        <ele>483.05</ele>
        <time>2015-10-28T12:20:07Z</time>
      </trkpt>
      <trkpt lat="43.382740" lon="-3.772789">
        <ele>485.06</ele>
        <time>2015-10-28T12:20:12Z</time>
      </trkpt>
      <trkpt lat="43.382739" lon="-3.772666">
        <ele>487.06</ele>
        <time>2015-10-28T12:20:19Z</time>
      </trkpt>
      <trkpt lat="43.382650" lon="-3.772599">
        <ele>490.06</ele>
        <time>2015-10-28T12:20:48Z</time>
      </trkpt>
      <trkpt lat="43.382577" lon="-3.772519">
        <ele>493.03</ele>
        <time>2015-10-28T12:21:04Z</time>
      </trkpt>
      <trkpt lat="43.382518" lon="-3.772638">
        <ele>493.02</ele>
        <time>2015-10-28T12:21:09Z</time>
      </trkpt>
      <trkpt lat="43.382461" lon="-3.772745">
        <ele>492.09</ele>
        <time>2015-10-28T12:21:17Z</time>
      </trkpt>
      <trkpt lat="43.382437" lon="-3.772873">
        <ele>492.02</ele>
        <time>2015-10-28T12:21:23Z</time>
      </trkpt>
      <trkpt lat="43.382379" lon="-3.772988">
        <ele>495.01</ele>
        <time>2015-10-28T12:21:31Z</time>
      </trkpt>
      <trkpt lat="43.382296" lon="-3.773057">
        <ele>495.01</ele>
        <time>2015-10-28T12:21:41Z</time>
      </trkpt>
      <trkpt lat="43.382250" lon="-3.773170">
        <ele>495.03</ele>
        <time>2015-10-28T12:21:50Z</time>
      </trkpt>
      <trkpt lat="43.382169" lon="-3.773253">
        <ele>496.02</ele>
        <time>2015-10-28T12:21:59Z</time>
      </trkpt>
      <trkpt lat="43.382102" lon="-3.773354">
        <ele>497.10</ele>
        <time>2015-10-28T12:22:08Z</time>
      </trkpt>
      <trkpt lat="43.382047" lon="-3.773455">
        <ele>500.02</ele>
        <time>2015-10-28T12:22:16Z</time>
      </trkpt>
      <trkpt lat="43.381982" lon="-3.773545">
        <ele>505.07</ele>
        <time>2015-10-28T12:22:26Z</time>
      </trkpt>
      <trkpt lat="43.381911" lon="-3.773632">
        <ele>510.08</ele>
        <time>2015-10-28T12:22:36Z</time>
      </trkpt>
      <trkpt lat="43.381904" lon="-3.773758">
        <ele>514.01</ele>
        <time>2015-10-28T12:22:43Z</time>
      </trkpt>
      <trkpt lat="43.381904" lon="-3.773881">
        <ele>526.09</ele>
        <time>2015-10-28T12:23:12Z</time>
      </trkpt>
      <trkpt lat="43.381885" lon="-3.774006">
        <ele>526.05</ele>
        <time>2015-10-28T12:23:17Z</time>
      </trkpt>
      <trkpt lat="43.381836" lon="-3.774136">
        <ele>526.07</ele>
        <time>2015-10-28T12:23:22Z</time>
      </trkpt>
      <trkpt lat="43.381798" lon="-3.774256">
        <ele>526.01</ele>
        <time>2015-10-28T12:23:26Z</time>
      </trkpt>
      <trkpt lat="43.381741" lon="-3.774376">
        <ele>527.02</ele>
        <time>2015-10-28T12:23:35Z</time>
      </trkpt>
      <trkpt lat="43.381711" lon="-3.774517">
        <ele>531.07</ele>
        <time>2015-10-28T12:23:40Z</time>
      </trkpt>
      <trkpt lat="43.381671" lon="-3.774654">
        <ele>532.09</ele>
        <time>2015-10-28T12:23:45Z</time>
      </trkpt>
      <trkpt lat="43.381607" lon="-3.774745">
        <ele>536.07</ele>
        <time>2015-10-28T12:23:50Z</time>
      </trkpt>
      <trkpt lat="43.381555" lon="-3.774864">
        <ele>542.07</ele>
        <time>2015-10-28T12:23:56Z</time>
      </trkpt>
      <trkpt lat="43.381461" lon="-3.774907">
        <ele>544.03</ele>
        <time>2015-10-28T12:24:00Z</time>
      </trkpt>
      <trkpt lat="43.381399" lon="-3.775007">
        <ele>545.08</ele>
        <time>2015-10-28T12:24:04Z</time>
      </trkpt>
      <trkpt lat="43.381363" lon="-3.775133">
        <ele>548.05</ele>
        <time>2015-10-28T12:24:08Z</time>
      </trkpt>
      <trkpt lat="43.381310" lon="-3.775253">
        <ele>552.06</ele>
        <time>2015-10-28T12:24:12Z</time>
      </trkpt>
      <trkpt lat="43.381245" lon="-3.775359">
        <ele>553.05</ele>
        <time>2015-10-28T12:24:16Z</time>
      </trkpt>
      <trkpt lat="43.381200" lon="-3.775514">
        <ele>554.08</ele>
        <time>2015-10-28T12:24:20Z</time>
      </trkpt>
      <trkpt lat="43.381120" lon="-3.775606">
        <ele>557.01</ele>
        <time>2015-10-28T12:24:24Z</time>
      </trkpt>
      <trkpt lat="43.381050" lon="-3.775719">
        <ele>558.02</ele>
        <time>2015-10-28T12:24:29Z</time>
      </trkpt>
      <trkpt lat="43.380996" lon="-3.775827">
        <ele>560.03</ele>
        <time>2015-10-28T12:24:35Z</time>
      </trkpt>
      <trkpt lat="43.380997" lon="-3.775956">
        <ele>562.07</ele>
        <time>2015-10-28T12:24:43Z</time>
      </trkpt>
      <trkpt lat="43.380942" lon="-3.776063">
        <ele>564.02</ele>
        <time>2015-10-28T12:24:47Z</time>
      </trkpt>
      <trkpt lat="43.380881" lon="-3.776190">
        <ele>568.07</ele>
        <time>2015-10-28T12:24:51Z</time>
      </trkpt>
      <trkpt lat="43.380812" lon="-3.776310">
        <ele>570.09</ele>
        <time>2015-10-28T12:24:55Z</time>
      </trkpt>
      <trkpt lat="43.380741" lon="-3.776426">
        <ele>572.08</ele>
        <time>2015-10-28T12:25:00Z</time>
      </trkpt>
      <trkpt lat="43.380715" lon="-3.776546">
        <ele>573.04</ele>
        <time>2015-10-28T12:25:03Z</time>
      </trkpt>
      <trkpt lat="43.380662" lon="-3.776690">
        <ele>572.03</ele>
        <time>2015-10-28T12:25:07Z</time>
      </trkpt>
      <trkpt lat="43.380616" lon="-3.776812">
        <ele>571.08</ele>
        <time>2015-10-28T12:25:10Z</time>
      </trkpt>
      <trkpt lat="43.380558" lon="-3.776952">
        <ele>571.01</ele>
        <time>2015-10-28T12:25:14Z</time>
      </trkpt>
      <trkpt lat="43.380502" lon="-3.777079">
        <ele>571.01</ele>
        <time>2015-10-28T12:25:18Z</time>
      </trkpt>
      <trkpt lat="43.380417" lon="-3.777132">
        <ele>574.02</ele>
        <time>2015-10-28T12:25:21Z</time>
      </trkpt>
      <trkpt lat="43.380316" lon="-3.777163">
        <ele>573.07</ele>
        <time>2015-10-28T12:25:26Z</time>
      </trkpt>
      <trkpt lat="43.380208" lon="-3.777250">
        <ele>577.09</ele>
        <time>2015-10-28T12:25:31Z</time>
      </trkpt>
      <trkpt lat="43.380231" lon="-3.777377">
        <ele>576.10</ele>
        <time>2015-10-28T12:25:35Z</time>
      </trkpt>
      <trkpt lat="43.380236" lon="-3.777506">
        <ele>578.09</ele>
        <time>2015-10-28T12:25:39Z</time>
      </trkpt>
      <trkpt lat="43.380150" lon="-3.777466">
        <ele>580.08</ele>
        <time>2015-10-28T12:25:51Z</time>
      </trkpt>
      <trkpt lat="43.380125" lon="-3.777587">
        <ele>583.04</ele>
        <time>2015-10-28T12:25:58Z</time>
      </trkpt>
      <trkpt lat="43.380142" lon="-3.777711">
        <ele>585.04</ele>
        <time>2015-10-28T12:26:05Z</time>
      </trkpt>
      <trkpt lat="43.380084" lon="-3.777808">
        <ele>588.10</ele>
        <time>2015-10-28T12:26:19Z</time>
      </trkpt>
      <trkpt lat="43.380043" lon="-3.777931">
        <ele>592.03</ele>
        <time>2015-10-28T12:26:25Z</time>
      </trkpt>
      <trkpt lat="43.379956" lon="-3.777901">
        <ele>595.05</ele>
        <time>2015-10-28T12:26:32Z</time>
      </trkpt>
      <trkpt lat="43.379869" lon="-3.777960">
        <ele>599.01</ele>
        <time>2015-10-28T12:26:40Z</time>
      </trkpt>
      <trkpt lat="43.379853" lon="-3.778088">
        <ele>602.01</ele>
        <time>2015-10-28T12:26:50Z</time>
      </trkpt>
      <trkpt lat="43.379903" lon="-3.778211">
        <ele>600.05</ele>
        <time>2015-10-28T12:27:00Z</time>
      </trkpt>
      <trkpt lat="43.379805" lon="-3.778204">
        <ele>602.04</ele>
        <time>2015-10-28T12:27:05Z</time>
      </trkpt>
      <trkpt lat="43.379710" lon="-3.778180">
        <ele>607.07</ele>
        <time>2015-10-28T12:27:09Z</time>
      </trkpt>
      <trkpt lat="43.379615" lon="-3.778157">
        <ele>610.04</ele>
        <time>2015-10-28T12:27:17Z</time>
      </trkpt>
      <trkpt lat="43.379531" lon="-3.778217">
        <ele>611.06</ele>
        <time>2015-10-28T12:27:22Z</time>
      </trkpt>
      <trkpt lat="43.379434" lon="-3.778239">
        <ele>612.09</ele>
        <time>2015-10-28T12:27:27Z</time>
      </trkpt>
      <trkpt lat="43.379343" lon="-3.778235">
        <ele>611.09</ele>
        <time>2015-10-28T12:27:32Z</time>
      </trkpt>
      <trkpt lat="43.379250" lon="-3.778214">
        <ele>611.01</ele>
        <time>2015-10-28T12:27:38Z</time>
      </trkpt>
      <trkpt lat="43.379159" lon="-3.778208">
        <ele>612.02</ele>
        <time>2015-10-28T12:27:43Z</time>
      </trkpt>
      <trkpt lat="43.379063" lon="-3.778240">
        <ele>611.09</ele>
        <time>2015-10-28T12:27:48Z</time>
      </trkpt>
      <trkpt lat="43.378965" lon="-3.778292">
        <ele>610.01</ele>
        <time>2015-10-28T12:27:55Z</time>
      </trkpt>
      <trkpt lat="43.378876" lon="-3.778324">
        <ele>608.01</ele>
        <time>2015-10-28T12:28:07Z</time>
      </trkpt>
      <trkpt lat="43.378794" lon="-3.778265">
        <ele>605.07</ele>
        <time>2015-10-28T12:28:25Z</time>
      </trkpt>
      <trkpt lat="43.378737" lon="-3.778372">
        <ele>606.01</ele>
        <time>2015-10-28T12:28:30Z</time>
      </trkpt>
      <trkpt lat="43.378680" lon="-3.778491">
        <ele>609.05</ele>
        <time>2015-10-28T12:28:34Z</time>
      </trkpt>
      <trkpt lat="43.378610" lon="-3.778594">
        <ele>610.01</ele>
        <time>2015-10-28T12:28:38Z</time>
      </trkpt>
      <trkpt lat="43.378558" lon="-3.778699">
        <ele>610.06</ele>
        <time>2015-10-28T12:28:41Z</time>
      </trkpt>
      <trkpt lat="43.378504" lon="-3.778817">
        <ele>610.05</ele>
        <time>2015-10-28T12:28:45Z</time>
      </trkpt>
      <trkpt lat="43.378448" lon="-3.778946">
        <ele>611.07</ele>
        <time>2015-10-28T12:28:51Z</time>
      </trkpt>
      <trkpt lat="43.378378" lon="-3.779056">
        <ele>611.08</ele>
        <time>2015-10-28T11:52:03Z</time>
      </trkpt>
      <trkpt lat="43.378286" lon="-3.779149">
        <ele>611.05</ele>
        <time>2015-10-28T11:52:08Z</time>
      </trkpt>
      <trkpt lat="43.378302" lon="-3.779279">
        <ele>608.04</ele>
        <time>2015-10-28T11:52:17Z</time>
      </trkpt>
      <trkpt lat="43.378351" lon="-3.779388">
        <ele>609.01</ele>
        <time>2015-10-28T11:52:24Z</time>
      </trkpt>
      <trkpt lat="43.378377" lon="-3.779514">
        <ele>608.03</ele>
        <time>2015-10-28T11:52:31Z</time>
      </trkpt>
      <trkpt lat="43.378435" lon="-3.779630">
        <ele>608.06</ele>
        <time>2015-10-28T11:52:39Z</time>
      </trkpt>
      <trkpt lat="43.378516" lon="-3.779710">
        <ele>608.09</ele>
        <time>2015-10-28T11:52:45Z</time>
      </trkpt>
      <trkpt lat="43.378612" lon="-3.779792">
        <ele>606.09</ele>
        <time>2015-10-28T11:52:59Z</time>
      </trkpt>
      <trkpt lat="43.378701" lon="-3.779878">
        <ele>605.08</ele>
        <time>2015-10-28T11:53:13Z</time>
      </trkpt>
      <trkpt lat="43.378795" lon="-3.779878">
        <ele>604.09</ele>
        <time>2015-10-28T11:53:21Z</time>
      </trkpt>
      <trkpt lat="43.378889" lon="-3.779938">
        <ele>602.03</ele>
        <time>2015-10-28T11:53:27Z</time>
      </trkpt>
      <trkpt lat="43.378981" lon="-3.779946">
        <ele>601.08</ele>
        <time>2015-10-28T11:53:32Z</time>
      </trkpt>
      <trkpt lat="43.379081" lon="-3.779965">
        <ele>599.08</ele>
        <time>2015-10-28T11:53:37Z</time>
      </trkpt>
      <trkpt lat="43.379183" lon="-3.779936">
        <ele>597.05</ele>
        <time>2015-10-28T11:53:43Z</time>
      </trkpt>
      <trkpt lat="43.379284" lon="-3.779905">
        <ele>597.08</ele>
        <time>2015-10-28T11:53:48Z</time>
      </trkpt>
      <trkpt lat="43.379376" lon="-3.779897">
        <ele>595.01</ele>
        <time>2015-10-28T11:53:55Z</time>
      </trkpt>
      <trkpt lat="43.379477" lon="-3.779906">
        <ele>594.02</ele>
        <time>2015-10-28T11:54:03Z</time>
      </trkpt>
      <trkpt lat="43.379565" lon="-3.779876">
        <ele>592.05</ele>
        <time>2015-10-28T11:54:15Z</time>
      </trkpt>
      <trkpt lat="43.379654" lon="-3.779901">
        <ele>587.10</ele>
        <time>2015-10-28T11:54:30Z</time>
      </trkpt>
      <trkpt lat="43.379715" lon="-3.779999">
        <ele>583.02</ele>
        <time>2015-10-28T11:54:43Z</time>
      </trkpt>
      <trkpt lat="43.379768" lon="-3.780101">
        <ele>580.04</ele>
        <time>2015-10-28T11:54:56Z</time>
      </trkpt>
      <trkpt lat="43.379822" lon="-3.780209">
        <ele>581.09</ele>
        <time>2015-10-28T11:55:06Z</time>
      </trkpt>
      <trkpt lat="43.379887" lon="-3.780106">
        <ele>581.10</ele>
        <time>2015-10-28T11:55:17Z</time>
      </trkpt>
      <trkpt lat="43.379954" lon="-3.780016">
        <ele>580.07</ele>
        <time>2015-10-28T11:55:26Z</time>
      </trkpt>
      <trkpt lat="43.379987" lon="-3.779895">
        <ele>580.07</ele>
        <time>2015-10-28T11:55:30Z</time>
      </trkpt>
      <trkpt lat="43.380018" lon="-3.779748">
        <ele>582.10</ele>
        <time>2015-10-28T11:55:35Z</time>
      </trkpt>
      <trkpt lat="43.380074" lon="-3.779627">
        <ele>583.04</ele>
        <time>2015-10-28T11:55:40Z</time>
      </trkpt>
      <trkpt lat="43.380111" lon="-3.779488">
        <ele>583.01</ele>
        <time>2015-10-28T11:55:58Z</time>
      </trkpt>
      <trkpt lat="43.380067" lon="-3.779616">
        <ele>581.02</ele>
        <time>2015-10-28T11:56:04Z</time>
      </trkpt>
      <trkpt lat="43.380029" lon="-3.779730">
        <ele>580.01</ele>
        <time>2015-10-28T11:56:08Z</time>
      </trkpt>
      <trkpt lat="43.379990" lon="-3.779843">
        <ele>579.08</ele>
        <time>2015-10-28T11:56:12Z</time>
      </trkpt>
      <trkpt lat="43.379958" lon="-3.779962">
        <ele>579.05</ele>
        <time>2015-10-28T11:56:16Z</time>
      </trkpt>
      <trkpt lat="43.379910" lon="-3.780072">
        <ele>578.03</ele>
        <time>2015-10-28T11:56:20Z</time>
      </trkpt>
      <trkpt lat="43.379863" lon="-3.780192">
        <ele>576.04</ele>
        <time>2015-10-28T11:56:25Z</time>
      </trkpt>
      <trkpt lat="43.379830" lon="-3.780314">
        <ele>574.10</ele>
        <time>2015-10-28T11:56:30Z</time>
      </trkpt>
      <trkpt lat="43.379811" lon="-3.780474">
        <ele>572.08</ele>
        <time>2015-10-28T11:56:38Z</time>
      </trkpt>
      <trkpt lat="43.379802" lon="-3.780603">
        <ele>569.04</ele>
        <time>2015-10-28T11:56:47Z</time>
      </trkpt>
      <trkpt lat="43.379820" lon="-3.780728">
        <ele>568.04</ele>
        <time>2015-10-28T11:56:58Z</time>
      </trkpt>
      <trkpt lat="43.379826" lon="-3.780856">
        <ele>567.09</ele>
        <time>2015-10-28T11:57:07Z</time>
      </trkpt>
      <trkpt lat="43.379805" lon="-3.780978">
        <ele>566.01</ele>
        <time>2015-10-28T11:57:17Z</time>
      </trkpt>
      <trkpt lat="43.379786" lon="-3.781106">
        <ele>563.02</ele>
        <time>2015-10-28T11:57:28Z</time>
      </trkpt>
      <trkpt lat="43.379790" lon="-3.781234">
        <ele>560.01</ele>
        <time>2015-10-28T11:57:41Z</time>
      </trkpt>
      <trkpt lat="43.379818" lon="-3.781354">
        <ele>557.05</ele>
        <time>2015-10-28T11:57:51Z</time>
      </trkpt>
      <trkpt lat="43.379840" lon="-3.781484">
        <ele>555.05</ele>
        <time>2015-10-28T11:57:59Z</time>
      </trkpt>
      <trkpt lat="43.379869" lon="-3.781617">
        <ele>552.10</ele>
        <time>2015-10-28T11:58:09Z</time>
      </trkpt>
      <trkpt lat="43.379880" lon="-3.781744">
        <ele>551.04</ele>
        <time>2015-10-28T11:58:18Z</time>
      </trkpt>
      <trkpt lat="43.379878" lon="-3.781869">
        <ele>548.03</ele>
        <time>2015-10-28T11:58:27Z</time>
      </trkpt>
      <trkpt lat="43.379866" lon="-3.781997">
        <ele>545.08</ele>
        <time>2015-10-28T11:58:36Z</time>
      </trkpt>
      <trkpt lat="43.379861" lon="-3.782121">
        <ele>543.06</ele>
        <time>2015-10-28T11:58:45Z</time>
      </trkpt>
      <trkpt lat="43.379842" lon="-3.782253">
        <ele>539.04</ele>
        <time>2015-10-28T11:58:54Z</time>
      </trkpt>
      <trkpt lat="43.379838" lon="-3.782388">
        <ele>537.09</ele>
        <time>2015-10-28T11:59:03Z</time>
      </trkpt>
      <trkpt lat="43.379837" lon="-3.782533">
        <ele>535.01</ele>
        <time>2015-10-28T11:59:11Z</time>
      </trkpt>
      <trkpt lat="43.379817" lon="-3.782675">
        <ele>532.02</ele>
        <time>2015-10-28T11:59:19Z</time>
      </trkpt>
      <trkpt lat="43.379796" lon="-3.782808">
        <ele>531.08</ele>
        <time>2015-10-28T11:59:28Z</time>
      </trkpt>
      <trkpt lat="43.379769" lon="-3.782932">
        <ele>526.09</ele>
        <time>2015-10-28T11:59:37Z</time>
      </trkpt>
      <trkpt lat="43.379804" lon="-3.783050">
        <ele>526.02</ele>
        <time>2015-10-28T11:59:47Z</time>
      </trkpt>
      <trkpt lat="43.379822" lon="-3.783180">
        <ele>526.01</ele>
        <time>2015-10-28T11:59:56Z</time>
      </trkpt>
      <trkpt lat="43.379783" lon="-3.783299">
        <ele>524.06</ele>
        <time>2015-10-28T12:00:05Z</time>
      </trkpt>
      <trkpt lat="43.379789" lon="-3.783435">
        <ele>522.03</ele>
        <time>2015-10-28T12:00:14Z</time>
      </trkpt>
      <trkpt lat="43.379749" lon="-3.783556">
        <ele>520.03</ele>
        <time>2015-10-28T12:00:22Z</time>
      </trkpt>
      <trkpt lat="43.379743" lon="-3.783696">
        <ele>519.05</ele>
        <time>2015-10-28T12:00:29Z</time>
      </trkpt>
      <trkpt lat="43.379733" lon="-3.783829">
        <ele>516.02</ele>
        <time>2015-10-28T12:00:36Z</time>
      </trkpt>
      <trkpt lat="43.379751" lon="-3.783954">
        <ele>514.06</ele>
        <time>2015-10-28T12:00:43Z</time>
      </trkpt>
      <trkpt lat="43.379758" lon="-3.784079">
        <ele>511.01</ele>
        <time>2015-10-28T12:00:51Z</time>
      </trkpt>
      <trkpt lat="43.379744" lon="-3.784206">
        <ele>509.02</ele>
        <time>2015-10-28T12:00:58Z</time>
      </trkpt>
      <trkpt lat="43.379700" lon="-3.784318">
        <ele>507.09</ele>
        <time>2015-10-28T12:01:04Z</time>
      </trkpt>
      <trkpt lat="43.379638" lon="-3.784426">
        <ele>506.08</ele>
        <time>2015-10-28T12:01:11Z</time>
      </trkpt>
      <trkpt lat="43.379582" lon="-3.784546">
        <ele>502.04</ele>
        <time>2015-10-28T12:01:17Z</time>
      </trkpt>
      <trkpt lat="43.379545" lon="-3.784671">
        <ele>499.04</ele>
        <time>2015-10-28T12:01:26Z</time>
      </trkpt>
      <trkpt lat="43.379487" lon="-3.784778">
        <ele>498.07</ele>
        <time>2015-10-28T12:01:36Z</time>
      </trkpt>
      <trkpt lat="43.379421" lon="-3.784866">
        <ele>495.10</ele>
        <time>2015-10-28T12:01:44Z</time>
      </trkpt>
      <trkpt lat="43.379364" lon="-3.784974">
        <ele>492.05</ele>
        <time>2015-10-28T12:01:55Z</time>
      </trkpt>
      <trkpt lat="43.379313" lon="-3.785081">
        <ele>488.05</ele>
        <time>2015-10-28T12:02:05Z</time>
      </trkpt>
      <trkpt lat="43.379314" lon="-3.785205">
        <ele>486.02</ele>
        <time>2015-10-28T12:02:16Z</time>
      </trkpt>
      <trkpt lat="43.379295" lon="-3.785330">
        <ele>487.06</ele>
        <time>2015-10-28T12:02:27Z</time>
      </trkpt>
      <trkpt lat="43.379257" lon="-3.785447">
        <ele>483.01</ele>
        <time>2015-10-28T12:02:37Z</time>
      </trkpt>
      <trkpt lat="43.379267" lon="-3.785576">
        <ele>478.02</ele>
        <time>2015-10-28T12:02:46Z</time>
      </trkpt>
      <trkpt lat="43.379276" lon="-3.785708">
        <ele>474.06</ele>
        <time>2015-10-28T12:02:55Z</time>
      </trkpt>
      <trkpt lat="43.379277" lon="-3.785833">
        <ele>472.05</ele>
        <time>2015-10-28T12:03:04Z</time>
      </trkpt>
      <trkpt lat="43.379274" lon="-3.785959">
        <ele>469.07</ele>
        <time>2015-10-28T12:03:11Z</time>
      </trkpt>
      <trkpt lat="43.379193" lon="-3.786049">
        <ele>464.04</ele>
        <time>2015-10-28T12:03:17Z</time>
      </trkpt>
      <trkpt lat="43.379103" lon="-3.786104">
        <ele>462.09</ele>
        <time>2015-10-28T12:03:23Z</time>
      </trkpt>
      <trkpt lat="43.379030" lon="-3.786195">
        <ele>459.04</ele>
        <time>2015-10-28T12:03:29Z</time>
      </trkpt>
      <trkpt lat="43.378937" lon="-3.786259">
        <ele>456.08</ele>
        <time>2015-10-28T12:03:35Z</time>
      </trkpt>
      <trkpt lat="43.378854" lon="-3.786313">
        <ele>461.05</ele>
        <time>2015-10-28T12:03:40Z</time>
      </trkpt>
      <trkpt lat="43.378770" lon="-3.786372">
        <ele>457.01</ele>
        <time>2015-10-28T12:03:45Z</time>
      </trkpt>
      <trkpt lat="43.378683" lon="-3.786442">
        <ele>455.09</ele>
        <time>2015-10-28T12:03:52Z</time>
      </trkpt>
      <trkpt lat="43.378668" lon="-3.786570">
        <ele>453.01</ele>
        <time>2015-10-28T12:04:00Z</time>
      </trkpt>
      <trkpt lat="43.378642" lon="-3.786691">
        <ele>450.00</ele>
        <time>2015-10-28T12:04:08Z</time>
      </trkpt>
      <trkpt lat="43.378594" lon="-3.786804">
        <ele>447.02</ele>
        <time>2015-10-28T12:04:16Z</time>
      </trkpt>
      <trkpt lat="43.378517" lon="-3.786889">
        <ele>447.01</ele>
        <time>2015-10-28T12:04:23Z</time>
      </trkpt>
      <trkpt lat="43.378442" lon="-3.786962">
        <ele>445.03</ele>
        <time>2015-10-28T12:04:28Z</time>
      </trkpt>
      <trkpt lat="43.378350" lon="-3.786998">
        <ele>443.01</ele>
        <time>2015-10-28T12:04:33Z</time>
      </trkpt>
      <trkpt lat="43.378258" lon="-3.787017">
        <ele>442.05</ele>
        <time>2015-10-28T12:04:38Z</time>
      </trkpt>
      <trkpt lat="43.378158" lon="-3.786975">
        <ele>441.03</ele>
        <time>2015-10-28T12:04:43Z</time>
      </trkpt>
      <trkpt lat="43.378061" lon="-3.786967">
        <ele>441.08</ele>
        <time>2015-10-28T12:04:48Z</time>
      </trkpt>
      <trkpt lat="43.377958" lon="-3.787005">
        <ele>441.08</ele>
        <time>2015-10-28T12:04:53Z</time>
      </trkpt>
      <trkpt lat="43.377887" lon="-3.787101">
        <ele>437.07</ele>
        <time>2015-10-28T12:05:06Z</time>
      </trkpt>
      <trkpt lat="43.377832" lon="-3.787211">
        <ele>436.04</ele>
        <time>2015-10-28T12:05:13Z</time>
      </trkpt>
      <trkpt lat="43.377760" lon="-3.787301">
        <ele>436.01</ele>
        <time>2015-10-28T12:05:18Z</time>
      </trkpt>
      <trkpt lat="43.377672" lon="-3.787375">
        <ele>434.01</ele>
        <time>2015-10-28T12:05:23Z</time>
      </trkpt>
      <trkpt lat="43.377594" lon="-3.787478">
        <ele>434.06</ele>
        <time>2015-10-28T12:05:28Z</time>
      </trkpt>
      <trkpt lat="43.377510" lon="-3.787544">
        <ele>435.06</ele>
        <time>2015-10-28T12:05:32Z</time>
      </trkpt>
      <trkpt lat="43.377444" lon="-3.787658">
        <ele>440.08</ele>
        <time>2015-10-28T12:05:38Z</time>
      </trkpt>
      <trkpt lat="43.377338" lon="-3.787659">
        <ele>443.07</ele>
        <time>2015-10-28T12:05:43Z</time>
      </trkpt>
      <trkpt lat="43.377258" lon="-3.787729">
        <ele>443.02</ele>
        <time>2015-10-28T12:05:47Z</time>
      </trkpt>
      <trkpt lat="43.377180" lon="-3.787846">
        <ele>445.07</ele>
        <time>2015-10-28T12:05:51Z</time>
      </trkpt>
      <trkpt lat="43.377124" lon="-3.787973">
        <ele>443.01</ele>
        <time>2015-10-28T12:05:55Z</time>
      </trkpt>
      <trkpt lat="43.377086" lon="-3.788117">
        <ele>442.07</ele>
        <time>2015-10-28T12:05:59Z</time>
      </trkpt>
      <trkpt lat="43.377087" lon="-3.788263">
        <ele>445.02</ele>
        <time>2015-10-28T12:06:04Z</time>
      </trkpt>
      <trkpt lat="43.377077" lon="-3.788400">
        <ele>445.02</ele>
        <time>2015-10-28T12:06:09Z</time>
      </trkpt>
      <trkpt lat="43.376988" lon="-3.788425">
        <ele>445.01</ele>
        <time>2015-10-28T12:06:19Z</time>
      </trkpt>
      <trkpt lat="43.377383" lon="-3.788307">
        <ele>391.39</ele>
        <time>2017-10-08T07:40:43Z</time>
      </trkpt>
      <trkpt lat="43.377390" lon="-3.788458">
        <ele>390.47</ele>
        <time>2017-10-08T07:40:56Z</time>
      </trkpt>
      <trkpt lat="43.377374" lon="-3.788643">
        <ele>393.32</ele>
        <time>2017-10-08T07:41:08Z</time>
      </trkpt>
      <trkpt lat="43.377441" lon="-3.788691">
        <ele>395.71</ele>
        <time>2017-10-08T07:41:21Z</time>
      </trkpt>
      <trkpt lat="43.377437" lon="-3.788679">
        <ele>396.63</ele>
        <time>2017-10-08T07:41:46Z</time>
      </trkpt>
      <trkpt lat="43.377375" lon="-3.788789">
        <ele>395.74</ele>
        <time>2017-10-08T07:42:10Z</time>
      </trkpt>
      <trkpt lat="43.377369" lon="-3.788836">
        <ele>394.74</ele>
        <time>2017-10-08T07:42:40Z</time>
      </trkpt>
      <trkpt lat="43.377374" lon="-3.788828">
        <ele>388.92</ele>
        <time>2017-10-08T07:44:01Z</time>
      </trkpt>
      <trkpt lat="43.377416" lon="-3.788789">
        <ele>388.01</ele>
        <time>2017-10-08T07:44:06Z</time>
      </trkpt>
      <trkpt lat="43.377575" lon="-3.788825">
        <ele>385.64</ele>
        <time>2017-10-08T07:44:21Z</time>
      </trkpt>
      <trkpt lat="43.377597" lon="-3.788849">
        <ele>386.13</ele>
        <time>2017-10-08T07:44:23Z</time>
      </trkpt>
      <trkpt lat="43.377639" lon="-3.789069">
        <ele>384.14</ele>
        <time>2017-10-08T07:44:38Z</time>
      </trkpt>
      <trkpt lat="43.377641" lon="-3.789122">
        <ele>383.77</ele>
        <time>2017-10-08T07:44:52Z</time>
      </trkpt>
      <trkpt lat="43.377642" lon="-3.789193">
        <ele>384.20</ele>
        <time>2017-10-08T07:45:03Z</time>
      </trkpt>
      <trkpt lat="43.377601" lon="-3.789505">
        <ele>382.23</ele>
        <time>2017-10-08T07:45:18Z</time>
      </trkpt>
      <trkpt lat="43.377589" lon="-3.789613">
        <ele>381.37</ele>
        <time>2017-10-08T07:45:28Z</time>
      </trkpt>
      <trkpt lat="43.377552" lon="-3.789678">
        <ele>380.85</ele>
        <time>2017-10-08T07:45:34Z</time>
      </trkpt>
      <trkpt lat="43.377547" lon="-3.789885">
        <ele>379.36</ele>
        <time>2017-10-08T07:45:46Z</time>
      </trkpt>
      <trkpt lat="43.377459" lon="-3.790018">
        <ele>379.81</ele>
        <time>2017-10-08T07:45:58Z</time>
      </trkpt>
      <trkpt lat="43.377406" lon="-3.790195">
        <ele>379.32</ele>
        <time>2017-10-08T07:46:10Z</time>
      </trkpt>
      <trkpt lat="43.377380" lon="-3.790239">
        <ele>378.91</ele>
        <time>2017-10-08T07:46:15Z</time>
      </trkpt>
      <trkpt lat="43.377312" lon="-3.790408">
        <ele>378.93</ele>
        <time>2017-10-08T07:46:27Z</time>
      </trkpt>
      <trkpt lat="43.377303" lon="-3.790444">
        <ele>378.99</ele>
        <time>2017-10-08T07:46:31Z</time>
      </trkpt>
      <trkpt lat="43.377274" lon="-3.790503">
        <ele>378.96</ele>
        <time>2017-10-08T07:46:35Z</time>
      </trkpt>
      <trkpt lat="43.377245" lon="-3.790754">
        <ele>377.47</ele>
        <time>2017-10-08T07:46:47Z</time>
      </trkpt>
      <trkpt lat="43.377235" lon="-3.790830">
        <ele>376.96</ele>
        <time>2017-10-08T07:46:51Z</time>
      </trkpt>
      <trkpt lat="43.377227" lon="-3.791052">
        <ele>376.96</ele>
        <time>2017-10-08T07:47:01Z</time>
      </trkpt>
      <trkpt lat="43.377225" lon="-3.791309">
        <ele>377.96</ele>
        <time>2017-10-08T07:47:15Z</time>
      </trkpt>
      <trkpt lat="43.377222" lon="-3.791423">
        <ele>377.94</ele>
        <time>2017-10-08T07:47:21Z</time>
      </trkpt>
      <trkpt lat="43.377189" lon="-3.791699">
        <ele>380.86</ele>
        <time>2017-10-08T07:47:35Z</time>
      </trkpt>
      <trkpt lat="43.377116" lon="-3.791968">
        <ele>382.71</ele>
        <time>2017-10-08T07:47:50Z</time>
      </trkpt>
      <trkpt lat="43.377087" lon="-3.792113">
        <ele>383.72</ele>
        <time>2017-10-08T07:47:58Z</time>
      </trkpt>
      <trkpt lat="43.377014" lon="-3.792449">
        <ele>385.61</ele>
        <time>2017-10-08T07:48:17Z</time>
      </trkpt>
      <trkpt lat="43.376940" lon="-3.792823">
        <ele>386.16</ele>
        <time>2017-10-08T07:48:35Z</time>
      </trkpt>
      <trkpt lat="43.376888" lon="-3.793149">
        <ele>386.12</ele>
        <time>2017-10-08T07:48:53Z</time>
      </trkpt>
      <trkpt lat="43.376827" lon="-3.793425">
        <ele>386.59</ele>
        <time>2017-10-08T07:49:06Z</time>
      </trkpt>
      <trkpt lat="43.376799" lon="-3.793624">
        <ele>387.53</ele>
        <time>2017-10-08T07:49:16Z</time>
      </trkpt>
      <trkpt lat="43.376731" lon="-3.793872">
        <ele>387.03</ele>
        <time>2017-10-08T07:49:30Z</time>
      </trkpt>
      <trkpt lat="43.376728" lon="-3.793889">
        <ele>387.07</ele>
        <time>2017-10-08T07:49:31Z</time>
      </trkpt>
      <trkpt lat="43.376729" lon="-3.793962">
        <ele>387.56</ele>
        <time>2017-10-08T07:49:35Z</time>
      </trkpt>
      <trkpt lat="43.376713" lon="-3.794001">
        <ele>388.05</ele>
        <time>2017-10-08T07:49:38Z</time>
      </trkpt>
      <trkpt lat="43.376702" lon="-3.794064">
        <ele>389.98</ele>
        <time>2017-10-08T07:49:43Z</time>
      </trkpt>
      <trkpt lat="43.376695" lon="-3.794135">
        <ele>390.90</ele>
        <time>2017-10-08T07:49:47Z</time>
      </trkpt>
      <trkpt lat="43.376679" lon="-3.794215">
        <ele>389.93</ele>
        <time>2017-10-08T07:49:53Z</time>
      </trkpt>
      <trkpt lat="43.376679" lon="-3.794356">
        <ele>390.41</ele>
        <time>2017-10-08T07:50:01Z</time>
      </trkpt>
      <trkpt lat="43.376648" lon="-3.794560">
        <ele>388.56</ele>
        <time>2017-10-08T07:50:11Z</time>
      </trkpt>
      <trkpt lat="43.376619" lon="-3.794757">
        <ele>388.55</ele>
        <time>2017-10-08T07:50:22Z</time>
      </trkpt>
      <trkpt lat="43.376608" lon="-3.794951">
        <ele>388.05</ele>
        <time>2017-10-08T07:50:32Z</time>
      </trkpt>
      <trkpt lat="43.376611" lon="-3.794987">
        <ele>388.06</ele>
        <time>2017-10-08T07:50:34Z</time>
      </trkpt>
      <trkpt lat="43.376613" lon="-3.795025">
        <ele>388.09</ele>
        <time>2017-10-08T07:50:36Z</time>
      </trkpt>
      <trkpt lat="43.376578" lon="-3.795163">
        <ele>387.58</ele>
        <time>2017-10-08T07:50:46Z</time>
      </trkpt>
      <trkpt lat="43.376541" lon="-3.795218">
        <ele>387.06</ele>
        <time>2017-10-08T07:50:50Z</time>
      </trkpt>
      <trkpt lat="43.376476" lon="-3.795456">
        <ele>385.69</ele>
        <time>2017-10-08T07:51:04Z</time>
      </trkpt>
      <trkpt lat="43.376390" lon="-3.795632">
        <ele>383.80</ele>
        <time>2017-10-08T07:51:16Z</time>
      </trkpt>
      <trkpt lat="43.376344" lon="-3.795755">
        <ele>383.21</ele>
        <time>2017-10-08T07:51:29Z</time>
      </trkpt>
      <trkpt lat="43.376348" lon="-3.795750">
        <ele>382.73</ele>
        <time>2017-10-08T07:51:50Z</time>
      </trkpt>
      <trkpt lat="43.376362" lon="-3.795766">
        <ele>382.71</ele>
        <time>2017-10-08T07:52:11Z</time>
      </trkpt>
      <trkpt lat="43.376332" lon="-3.795895">
        <ele>382.25</ele>
        <time>2017-10-08T07:52:25Z</time>
      </trkpt>
      <trkpt lat="43.379115" lon="-3.792635">
        <ele>303.42</ele>
        <time>2014-06-19T16:24:56Z</time>
      </trkpt>
      <trkpt lat="43.379156" lon="-3.792480">
        <ele>304.21</ele>
        <time>2014-06-19T16:25:01Z</time>
      </trkpt>
      <trkpt lat="43.379198" lon="-3.792282">
        <ele>305.06</ele>
        <time>2014-06-19T16:25:06Z</time>
      </trkpt>
      <trkpt lat="43.379251" lon="-3.792095">
        <ele>305.85</ele>
        <time>2014-06-19T16:25:11Z</time>
      </trkpt>
      <trkpt lat="43.379277" lon="-3.791923">
        <ele>306.63</ele>
        <time>2014-06-19T16:25:16Z</time>
      </trkpt>
      <trkpt lat="43.379279" lon="-3.791890">
        <ele>306.85</ele>
        <time>2014-06-19T16:25:17Z</time>
      </trkpt>
      <trkpt lat="43.379346" lon="-3.791686">
        <ele>307.43</ele>
        <time>2014-06-19T16:25:23Z</time>
      </trkpt>
      <trkpt lat="43.379369" lon="-3.791580">
        <ele>307.63</ele>
        <time>2014-06-19T16:25:27Z</time>
      </trkpt>
      <trkpt lat="43.379344" lon="-3.791523">
        <ele>308.46</ele>
        <time>2014-06-19T16:25:32Z</time>
      </trkpt>
      <trkpt lat="43.379257" lon="-3.791512">
        <ele>309.42</ele>
        <time>2014-06-19T16:25:40Z</time>
      </trkpt>
      <trkpt lat="43.379236" lon="-3.791518">
        <ele>309.68</ele>
        <time>2014-06-19T16:25:42Z</time>
      </trkpt>
      <trkpt lat="43.379149" lon="-3.791550">
        <ele>309.81</ele>
        <time>2014-06-19T16:25:49Z</time>
      </trkpt>
      <trkpt lat="43.379126" lon="-3.791562">
        <ele>309.81</ele>
        <time>2014-06-19T16:25:51Z</time>
      </trkpt>
      <trkpt lat="43.379104" lon="-3.791582">
        <ele>310.02</ele>
        <time>2014-06-19T16:25:53Z</time>
      </trkpt>
      <trkpt lat="43.379056" lon="-3.791601">
        <ele>310.01</ele>
        <time>2014-06-19T16:25:57Z</time>
      </trkpt>
      <trkpt lat="43.378987" lon="-3.791616">
        <ele>310.08</ele>
        <time>2014-06-19T16:26:02Z</time>
      </trkpt>
      <trkpt lat="43.378978" lon="-3.791615">
        <ele>310.25</ele>
        <time>2014-06-19T16:26:03Z</time>
      </trkpt>
      <trkpt lat="43.378964" lon="-3.791615">
        <ele>310.70</ele>
        <time>2014-06-19T16:26:05Z</time>
      </trkpt>
      <trkpt lat="43.378927" lon="-3.791549">
        <ele>311.25</ele>
        <time>2014-06-19T16:26:10Z</time>
      </trkpt>
      <trkpt lat="43.378937" lon="-3.791407">
        <ele>311.85</ele>
        <time>2014-06-19T16:26:18Z</time>
      </trkpt>
      <trkpt lat="43.378962" lon="-3.791320">
        <ele>312.06</ele>
        <time>2014-06-19T16:26:23Z</time>
      </trkpt>
      <trkpt lat="43.378968" lon="-3.791308">
        <ele>312.01</ele>
        <time>2014-06-19T16:26:24Z</time>
      </trkpt>
      <trkpt lat="43.378991" lon="-3.791228">
        <ele>312.62</ele>
        <time>2014-06-19T16:26:29Z</time>
      </trkpt>
      <trkpt lat="43.379017" lon="-3.791138">
        <ele>313.41</ele>
        <time>2014-06-19T16:26:34Z</time>
      </trkpt>
      <trkpt lat="43.379010" lon="-3.791039">
        <ele>313.83</ele>
        <time>2014-06-19T16:26:40Z</time>
      </trkpt>
      <trkpt lat="43.378954" lon="-3.790992">
        <ele>314.44</ele>
        <time>2014-06-19T16:26:46Z</time>
      </trkpt>
      <trkpt lat="43.378903" lon="-3.790982">
        <ele>315.29</ele>
        <time>2014-06-19T16:26:50Z</time>
      </trkpt>
      <trkpt lat="43.378889" lon="-3.790981">
        <ele>315.26</ele>
        <time>2014-06-19T16:26:51Z</time>
      </trkpt>
      <trkpt lat="43.378817" lon="-3.790981">
        <ele>316.05</ele>
        <time>2014-06-19T16:26:57Z</time>
      </trkpt>
      <trkpt lat="43.378810" lon="-3.790984">
        <ele>316.24</ele>
        <time>2014-06-19T16:26:58Z</time>
      </trkpt>
      <trkpt lat="43.378765" lon="-3.791022">
        <ele>317.25</ele>
        <time>2014-06-19T16:27:03Z</time>
      </trkpt>
      <trkpt lat="43.378757" lon="-3.791029">
        <ele>318.42</ele>
        <time>2014-06-19T16:27:10Z</time>
      </trkpt>
      <trkpt lat="43.378760" lon="-3.791016">
        <ele>319.48</ele>
        <time>2014-06-19T16:27:15Z</time>
      </trkpt>
      <trkpt lat="43.378750" lon="-3.791052">
        <ele>319.81</ele>
        <time>2014-06-19T16:27:18Z</time>
      </trkpt>
      <trkpt lat="43.378675" lon="-3.791141">
        <ele>320.81</ele>
        <time>2014-06-19T16:27:23Z</time>
      </trkpt>
      <trkpt lat="43.378653" lon="-3.791150">
        <ele>321.05</ele>
        <time>2014-06-19T16:27:24Z</time>
      </trkpt>
      <trkpt lat="43.378628" lon="-3.791161">
        <ele>321.23</ele>
        <time>2014-06-19T16:27:25Z</time>
      </trkpt>
      <trkpt lat="43.378513" lon="-3.791253">
        <ele>322.01</ele>
        <time>2014-06-19T16:27:30Z</time>
      </trkpt>
      <trkpt lat="43.378420" lon="-3.791366">
        <ele>323.28</ele>
        <time>2014-06-19T16:27:35Z</time>
      </trkpt>
      <trkpt lat="43.378325" lon="-3.791488">
        <ele>324.09</ele>
        <time>2014-06-19T16:27:40Z</time>
      </trkpt>
      <trkpt lat="43.378271" lon="-3.791551">
        <ele>324.62</ele>
        <time>2014-06-19T16:27:43Z</time>
      </trkpt>
      <trkpt lat="43.378259" lon="-3.791589">
        <ele>325.25</ele>
        <time>2014-06-19T16:27:45Z</time>
      </trkpt>
      <trkpt lat="43.378230" lon="-3.791642">
        <ele>325.80</ele>
        <time>2014-06-19T16:27:49Z</time>
      </trkpt>
      <trkpt lat="43.378223" lon="-3.791670">
        <ele>326.61</ele>
        <time>2014-06-19T16:27:51Z</time>
      </trkpt>
      <trkpt lat="43.378206" lon="-3.791691">
        <ele>327.01</ele>
        <time>2014-06-19T16:27:53Z</time>
      </trkpt>
      <trkpt lat="43.378163" lon="-3.791730">
        <ele>327.84</ele>
        <time>2014-06-19T16:27:57Z</time>
      </trkpt>
      <trkpt lat="43.378063" lon="-3.791918">
        <ele>331.30</ele>
        <time>2014-06-19T16:28:12Z</time>
      </trkpt>
      <trkpt lat="43.378007" lon="-3.792039">
        <ele>332.49</ele>
        <time>2014-06-19T16:28:19Z</time>
      </trkpt>
      <trkpt lat="43.377963" lon="-3.792125">
        <ele>333.48</ele>
        <time>2014-06-19T16:28:24Z</time>
      </trkpt>
      <trkpt lat="43.377924" lon="-3.792226">
        <ele>334.44</ele>
        <time>2014-06-19T16:28:30Z</time>
      </trkpt>
      <trkpt lat="43.377879" lon="-3.792307">
        <ele>335.01</ele>
        <time>2014-06-19T16:28:36Z</time>
      </trkpt>
      <trkpt lat="43.377869" lon="-3.792322">
        <ele>335.27</ele>
        <time>2014-06-19T16:28:37Z</time>
      </trkpt>
      <trkpt lat="43.377848" lon="-3.792355">
        <ele>335.82</ele>
        <time>2014-06-19T16:28:39Z</time>
      </trkpt>
      <trkpt lat="43.377803" lon="-3.792404">
        <ele>336.60</ele>
        <time>2014-06-19T16:28:44Z</time>
      </trkpt>
      <trkpt lat="43.377778" lon="-3.792463">
        <ele>337.21</ele>
        <time>2014-06-19T16:28:48Z</time>
      </trkpt>
      <trkpt lat="43.377764" lon="-3.792498">
        <ele>337.81</ele>
        <time>2014-06-19T16:28:50Z</time>
      </trkpt>
      <trkpt lat="43.377726" lon="-3.792565">
        <ele>338.69</ele>
        <time>2014-06-19T16:28:54Z</time>
      </trkpt>
      <trkpt lat="43.377654" lon="-3.792718">
        <ele>341.28</ele>
        <time>2014-06-19T16:29:03Z</time>
      </trkpt>
      <trkpt lat="43.377632" lon="-3.792748">
        <ele>341.84</ele>
        <time>2014-06-19T16:29:05Z</time>
      </trkpt>
      <trkpt lat="43.377589" lon="-3.792792">
        <ele>342.68</ele>
        <time>2014-06-19T16:29:09Z</time>
      </trkpt>
      <trkpt lat="43.377546" lon="-3.792877">
        <ele>344.05</ele>
        <time>2014-06-19T16:29:15Z</time>
      </trkpt>
      <trkpt lat="43.377529" lon="-3.792932">
        <ele>344.88</ele>
        <time>2014-06-19T16:29:18Z</time>
      </trkpt>
      <trkpt lat="43.377495" lon="-3.793058">
        <ele>346.43</ele>
        <time>2014-06-19T16:29:25Z</time>
      </trkpt>
      <trkpt lat="43.377486" lon="-3.793097">
        <ele>346.82</ele>
        <time>2014-06-19T16:29:27Z</time>
      </trkpt>
      <trkpt lat="43.377452" lon="-3.793228">
        <ele>348.70</ele>
        <time>2014-06-19T16:29:34Z</time>
      </trkpt>
      <trkpt lat="43.377443" lon="-3.793275">
        <ele>349.02</ele>
        <time>2014-06-19T16:29:37Z</time>
      </trkpt>
      <trkpt lat="43.377427" lon="-3.793333">
        <ele>349.81</ele>
        <time>2014-06-19T16:29:40Z</time>
      </trkpt>
      <trkpt lat="43.377400" lon="-3.793404">
        <ele>351.02</ele>
        <time>2014-06-19T16:29:45Z</time>
      </trkpt>
      <trkpt lat="43.377393" lon="-3.793425">
        <ele>351.24</ele>
        <time>2014-06-19T16:29:46Z</time>
      </trkpt>
      <trkpt lat="43.377349" lon="-3.793633">
        <ele>352.64</ele>
        <time>2014-06-19T16:29:53Z</time>
      </trkpt>
      <trkpt lat="43.377330" lon="-3.793774">
        <ele>353.42</ele>
        <time>2014-06-19T16:29:57Z</time>
      </trkpt>
      <trkpt lat="43.377282" lon="-3.793981">
        <ele>354.26</ele>
        <time>2014-06-19T16:30:03Z</time>
      </trkpt>
      <trkpt lat="43.377268" lon="-3.794014">
        <ele>354.70</ele>
        <time>2014-06-19T16:30:04Z</time>
      </trkpt>
      <trkpt lat="43.377219" lon="-3.794191">
        <ele>355.64</ele>
        <time>2014-06-19T16:30:09Z</time>
      </trkpt>
      <trkpt lat="43.377175" lon="-3.794390">
        <ele>356.68</ele>
        <time>2014-06-19T16:30:14Z</time>
      </trkpt>
      <trkpt lat="43.377112" lon="-3.794575">
        <ele>357.66</ele>
        <time>2014-06-19T16:30:19Z</time>
      </trkpt>
      <trkpt lat="43.377057" lon="-3.794759">
        <ele>358.22</ele>
        <time>2014-06-19T16:30:24Z</time>
      </trkpt>
      <trkpt lat="43.376968" lon="-3.794986">
        <ele>359.41</ele>
        <time>2014-06-19T16:30:30Z</time>
      </trkpt>
      <trkpt lat="43.376873" lon="-3.795191">
        <ele>360.21</ele>
        <time>2014-06-19T16:30:36Z</time>
      </trkpt>
      <trkpt lat="43.376846" lon="-3.795240">
        <ele>360.50</ele>
        <time>2014-06-19T16:30:38Z</time>
      </trkpt>
      <trkpt lat="43.376798" lon="-3.795297">
        <ele>360.82</ele>
        <time>2014-06-19T16:30:43Z</time>
      </trkpt>
      <trkpt lat="43.376733" lon="-3.795361">
        <ele>361.82</ele>
        <time>2014-06-19T16:30:50Z</time>
      </trkpt>
      <trkpt lat="43.376726" lon="-3.795373">
        <ele>361.82</ele>
        <time>2014-06-19T16:30:51Z</time>
      </trkpt>
      <trkpt lat="43.376712" lon="-3.795382">
        <ele>362.85</ele>
        <time>2014-06-19T16:31:01Z</time>
      </trkpt>
      <trkpt lat="43.376660" lon="-3.795407">
        <ele>363.04</ele>
        <time>2014-06-19T16:31:06Z</time>
      </trkpt>
      <trkpt lat="43.376605" lon="-3.795452">
        <ele>363.28</ele>
        <time>2014-06-19T16:31:12Z</time>
      </trkpt>
      <trkpt lat="43.376552" lon="-3.795497">
        <ele>364.06</ele>
        <time>2014-06-19T16:31:17Z</time>
      </trkpt>
      <trkpt lat="43.376526" lon="-3.795529">
        <ele>364.42</ele>
        <time>2014-06-19T16:31:20Z</time>
      </trkpt>
      <trkpt lat="43.376491" lon="-3.795599">
        <ele>365.41</ele>
        <time>2014-06-19T16:31:26Z</time>
      </trkpt>
      <trkpt lat="43.376437" lon="-3.795663">
        <ele>367.06</ele>
        <time>2014-06-19T16:31:33Z</time>
      </trkpt>
      <trkpt lat="43.376432" lon="-3.795675">
        <ele>367.29</ele>
        <time>2014-06-19T16:31:34Z</time>
      </trkpt>
      <trkpt lat="43.376392" lon="-3.795752">
        <ele>369.25</ele>
        <time>2014-06-19T16:31:42Z</time>
      </trkpt>
      <trkpt lat="43.376391" lon="-3.795777">
        <ele>371.30</ele>
        <time>2014-06-19T16:31:51Z</time>
      </trkpt>
      <trkpt lat="43.376390" lon="-3.795777">
        <ele>372.68</ele>
        <time>2014-06-19T16:32:00Z</time>
      </trkpt>
      <trkpt lat="43.376387" lon="-3.795777">
        <ele>373.06</ele>
        <time>2014-06-19T16:32:04Z</time>
      </trkpt>
      <trkpt lat="43.376387" lon="-3.795778">
        <ele>373.29</ele>
        <time>2014-06-19T16:32:11Z</time>
      </trkpt>
      <trkpt lat="43.376374" lon="-3.795880">
        <ele>374.42</ele>
        <time>2014-06-19T16:32:18Z</time>
      </trkpt>
      <trkpt lat="43.379175" lon="-3.792620">
        <ele>310.29</ele>
        <time>2019-02-03T09:39:34Z</time>
      </trkpt>
      <trkpt lat="43.379138" lon="-3.792752">
        <ele>309.83</ele>
        <time>2019-02-03T09:39:40Z</time>
      </trkpt>
      <trkpt lat="43.379136" lon="-3.792780">
        <ele>309.89</ele>
        <time>2019-02-03T09:39:42Z</time>
      </trkpt>
      <trkpt lat="43.379135" lon="-3.792809">
        <ele>309.89</ele>
        <time>2019-02-03T09:39:44Z</time>
      </trkpt>
      <trkpt lat="43.379130" lon="-3.792835">
        <ele>309.61</ele>
        <time>2019-02-03T09:39:46Z</time>
      </trkpt>
      <trkpt lat="43.379132" lon="-3.793046">
        <ele>307.62</ele>
        <time>2019-02-03T09:41:13Z</time>
      </trkpt>
      <trkpt lat="43.379103" lon="-3.793167">
        <ele>307.07</ele>
        <time>2019-02-03T09:41:21Z</time>
      </trkpt>
      <trkpt lat="43.379125" lon="-3.793303">
        <ele>306.89</ele>
        <time>2019-02-03T09:41:25Z</time>
      </trkpt>
      <trkpt lat="43.379128" lon="-3.793444">
        <ele>306.42</ele>
        <time>2019-02-03T09:41:29Z</time>
      </trkpt>
      <trkpt lat="43.379103" lon="-3.793598">
        <ele>306.28</ele>
        <time>2019-02-03T09:41:33Z</time>
      </trkpt>
      <trkpt lat="43.379065" lon="-3.793713">
        <ele>306.08</ele>
        <time>2019-02-03T09:41:36Z</time>
      </trkpt>
      <trkpt lat="43.379028" lon="-3.793859">
        <ele>306.07</ele>
        <time>2019-02-03T09:41:40Z</time>
      </trkpt>
      <trkpt lat="43.378989" lon="-3.793992">
        <ele>306.23</ele>
        <time>2019-02-03T09:41:44Z</time>
      </trkpt>
      <trkpt lat="43.378954" lon="-3.794130">
        <ele>306.05</ele>
        <time>2019-02-03T09:41:48Z</time>
      </trkpt>
      <trkpt lat="43.378929" lon="-3.794255">
        <ele>306.06</ele>
        <time>2019-02-03T09:41:52Z</time>
      </trkpt>
      <trkpt lat="43.378897" lon="-3.794389">
        <ele>306.07</ele>
        <time>2019-02-03T09:41:56Z</time>
      </trkpt>
      <trkpt lat="43.378899" lon="-3.794521">
        <ele>305.61</ele>
        <time>2019-02-03T09:42:00Z</time>
      </trkpt>
      <trkpt lat="43.378895" lon="-3.794655">
        <ele>305.42</ele>
        <time>2019-02-03T09:42:04Z</time>
      </trkpt>
      <trkpt lat="43.378859" lon="-3.794772">
        <ele>305.49</ele>
        <time>2019-02-03T09:42:08Z</time>
      </trkpt>
      <trkpt lat="43.378845" lon="-3.794908">
        <ele>305.42</ele>
        <time>2019-02-03T09:42:12Z</time>
      </trkpt>
      <trkpt lat="43.378798" lon="-3.795048">
        <ele>305.82</ele>
        <time>2019-02-03T09:42:16Z</time>
      </trkpt>
      <trkpt lat="43.378749" lon="-3.795157">
        <ele>305.67</ele>
        <time>2019-02-03T09:42:19Z</time>
      </trkpt>
      <trkpt lat="43.378705" lon="-3.795289">
        <ele>305.49</ele>
        <time>2019-02-03T09:42:23Z</time>
      </trkpt>
      <trkpt lat="43.378668" lon="-3.795439">
        <ele>305.22</ele>
        <time>2019-02-03T09:42:27Z</time>
      </trkpt>
      <trkpt lat="43.378628" lon="-3.795567">
        <ele>305.04</ele>
        <time>2019-02-03T09:42:31Z</time>
      </trkpt>
      <trkpt lat="43.378584" lon="-3.795691">
        <ele>304.89</ele>
        <time>2019-02-03T09:42:35Z</time>
      </trkpt>
      <trkpt lat="43.378571" lon="-3.795837">
        <ele>304.64</ele>
        <time>2019-02-03T09:42:39Z</time>
      </trkpt>
      <trkpt lat="43.378521" lon="-3.795963">
        <ele>304.68</ele>
        <time>2019-02-03T09:42:43Z</time>
      </trkpt>
      <trkpt lat="43.378468" lon="-3.796082">
        <ele>305.01</ele>
        <time>2019-02-03T09:42:47Z</time>
      </trkpt>
      <trkpt lat="43.378439" lon="-3.796201">
        <ele>304.82</ele>
        <time>2019-02-03T09:42:51Z</time>
      </trkpt>
      <trkpt lat="43.378408" lon="-3.796342">
        <ele>304.80</ele>
        <time>2019-02-03T09:42:55Z</time>
      </trkpt>
      <trkpt lat="43.378411" lon="-3.796477">
        <ele>304.67</ele>
        <time>2019-02-03T09:42:59Z</time>
      </trkpt>
      <trkpt lat="43.378377" lon="-3.796616">
        <ele>304.62</ele>
        <time>2019-02-03T09:43:03Z</time>
      </trkpt>
      <trkpt lat="43.378334" lon="-3.796753">
        <ele>304.67</ele>
        <time>2019-02-03T09:43:07Z</time>
      </trkpt>
      <trkpt lat="43.378313" lon="-3.796895">
        <ele>304.86</ele>
        <time>2019-02-03T09:43:11Z</time>
      </trkpt>
      <trkpt lat="43.378291" lon="-3.797031">
        <ele>304.86</ele>
        <time>2019-02-03T09:43:15Z</time>
      </trkpt>
      <trkpt lat="43.378255" lon="-3.797165">
        <ele>304.70</ele>
        <time>2019-02-03T09:43:19Z</time>
      </trkpt>
      <trkpt lat="43.378194" lon="-3.797294">
        <ele>304.46</ele>
        <time>2019-02-03T09:43:23Z</time>
      </trkpt>
      <trkpt lat="43.378159" lon="-3.797440">
        <ele>304.23</ele>
        <time>2019-02-03T09:43:27Z</time>
      </trkpt>
      <trkpt lat="43.378092" lon="-3.797542">
        <ele>304.46</ele>
        <time>2019-02-03T09:43:30Z</time>
      </trkpt>
      <trkpt lat="43.378027" lon="-3.797646">
        <ele>304.21</ele>
        <time>2019-02-03T09:43:33Z</time>
      </trkpt>
      <trkpt lat="43.377966" lon="-3.797742">
        <ele>304.01</ele>
        <time>2019-02-03T09:43:36Z</time>
      </trkpt>
      <trkpt lat="43.377922" lon="-3.797887">
        <ele>304.23</ele>
        <time>2019-02-03T09:43:40Z</time>
      </trkpt>
      <trkpt lat="43.377886" lon="-3.798025">
        <ele>304.41</ele>
        <time>2019-02-03T09:43:44Z</time>
      </trkpt>
      <trkpt lat="43.377843" lon="-3.798161">
        <ele>304.27</ele>
        <time>2019-02-03T09:43:48Z</time>
      </trkpt>
      <trkpt lat="43.377800" lon="-3.798293">
        <ele>304.01</ele>
        <time>2019-02-03T09:43:52Z</time>
      </trkpt>
      <trkpt lat="43.377761" lon="-3.798429">
        <ele>303.45</ele>
        <time>2019-02-03T09:43:57Z</time>
      </trkpt>
      <trkpt lat="43.377734" lon="-3.798498">
        <ele>303.06</ele>
        <time>2019-02-03T09:43:59Z</time>
      </trkpt>
      <trkpt lat="43.377716" lon="-3.798576">
        <ele>302.69</ele>
        <time>2019-02-03T09:44:01Z</time>
      </trkpt>
      <trkpt lat="43.377661" lon="-3.798675">
        <ele>302.01</ele>
        <time>2019-02-03T09:44:04Z</time>
      </trkpt>
      <trkpt lat="43.377610" lon="-3.798826">
        <ele>301.88</ele>
        <time>2019-02-03T09:44:08Z</time>
      </trkpt>
      <trkpt lat="43.377550" lon="-3.798956">
        <ele>301.86</ele>
        <time>2019-02-03T09:44:12Z</time>
      </trkpt>
      <trkpt lat="43.377507" lon="-3.799091">
        <ele>301.61</ele>
        <time>2019-02-03T09:44:16Z</time>
      </trkpt>
      <trkpt lat="43.377464" lon="-3.799229">
        <ele>301.61</ele>
        <time>2019-02-03T09:44:20Z</time>
      </trkpt>
      <trkpt lat="43.377408" lon="-3.799338">
        <ele>301.60</ele>
        <time>2019-02-03T09:44:23Z</time>
      </trkpt>
      <trkpt lat="43.377354" lon="-3.799450">
        <ele>301.45</ele>
        <time>2019-02-03T09:44:26Z</time>
      </trkpt>
      <trkpt lat="43.377319" lon="-3.799570">
        <ele>301.48</ele>
        <time>2019-02-03T09:44:29Z</time>
      </trkpt>
      <trkpt lat="43.377283" lon="-3.799698">
        <ele>301.47</ele>
        <time>2019-02-03T09:44:33Z</time>
      </trkpt>
      <trkpt lat="43.377248" lon="-3.799830">
        <ele>301.21</ele>
        <time>2019-02-03T09:44:37Z</time>
      </trkpt>
      <trkpt lat="43.377222" lon="-3.799961">
        <ele>301.06</ele>
        <time>2019-02-03T09:44:41Z</time>
      </trkpt>
      <trkpt lat="43.377198" lon="-3.800108">
        <ele>301.02</ele>
        <time>2019-02-03T09:44:45Z</time>
      </trkpt>
      <trkpt lat="43.377209" lon="-3.800265">
        <ele>301.08</ele>
        <time>2019-02-03T09:44:49Z</time>
      </trkpt>
      <trkpt lat="43.377206" lon="-3.800408">
        <ele>300.84</ele>
        <time>2019-02-03T09:44:53Z</time>
      </trkpt>
      <trkpt lat="43.377187" lon="-3.800562">
        <ele>300.23</ele>
        <time>2019-02-03T09:44:57Z</time>
      </trkpt>
      <trkpt lat="43.377134" lon="-3.800705">
        <ele>300.21</ele>
        <time>2019-02-03T09:45:01Z</time>
      </trkpt>
      <trkpt lat="43.377077" lon="-3.800844">
        <ele>300.22</ele>
        <time>2019-02-03T09:45:05Z</time>
      </trkpt>
      <trkpt lat="43.376985" lon="-3.800959">
        <ele>300.46</ele>
        <time>2019-02-03T09:45:09Z</time>
      </trkpt>
      <trkpt lat="43.376907" lon="-3.801053">
        <ele>300.69</ele>
        <time>2019-02-03T09:45:12Z</time>
      </trkpt>
      <trkpt lat="43.376819" lon="-3.801152">
        <ele>300.49</ele>
        <time>2019-02-03T09:45:15Z</time>
      </trkpt>
      <trkpt lat="43.376760" lon="-3.801260">
        <ele>300.26</ele>
        <time>2019-02-03T09:45:18Z</time>
      </trkpt>
      <trkpt lat="43.376717" lon="-3.801407">
        <ele>300.03</ele>
        <time>2019-02-03T09:45:22Z</time>
      </trkpt>
      <trkpt lat="43.376700" lon="-3.801557">
        <ele>300.21</ele>
        <time>2019-02-03T09:45:26Z</time>
      </trkpt>
      <trkpt lat="43.376683" lon="-3.801710">
        <ele>300.10</ele>
        <time>2019-02-03T09:45:30Z</time>
      </trkpt>
      <trkpt lat="43.376660" lon="-3.801859">
        <ele>299.69</ele>
        <time>2019-02-03T09:45:34Z</time>
      </trkpt>
      <trkpt lat="43.376634" lon="-3.801990">
        <ele>299.50</ele>
        <time>2019-02-03T09:45:38Z</time>
      </trkpt>
      <trkpt lat="43.376606" lon="-3.802130">
        <ele>299.43</ele>
        <time>2019-02-03T09:45:42Z</time>
      </trkpt>
      <trkpt lat="43.376596" lon="-3.802282">
        <ele>299.41</ele>
        <time>2019-02-03T09:45:47Z</time>
      </trkpt>
      <trkpt lat="43.376580" lon="-3.802421">
        <ele>299.21</ele>
        <time>2019-02-03T09:45:51Z</time>
      </trkpt>
      <trkpt lat="43.376573" lon="-3.802552">
        <ele>299.21</ele>
        <time>2019-02-03T09:45:55Z</time>
      </trkpt>
      <trkpt lat="43.376504" lon="-3.802673">
        <ele>299.47</ele>
        <time>2019-02-03T09:45:59Z</time>
      </trkpt>
      <trkpt lat="43.376448" lon="-3.802784">
        <ele>299.29</ele>
        <time>2019-02-03T09:46:02Z</time>
      </trkpt>
      <trkpt lat="43.376391" lon="-3.802918">
        <ele>299.02</ele>
        <time>2019-02-03T09:46:06Z</time>
      </trkpt>
      <trkpt lat="43.376347" lon="-3.803045">
        <ele>299.47</ele>
        <time>2019-02-03T09:46:10Z</time>
      </trkpt>
      <trkpt lat="43.376304" lon="-3.803174">
        <ele>299.66</ele>
        <time>2019-02-03T09:46:14Z</time>
      </trkpt>
      <trkpt lat="43.376298" lon="-3.803330">
        <ele>299.81</ele>
        <time>2019-02-03T09:46:18Z</time>
      </trkpt>
      <trkpt lat="43.376300" lon="-3.803471">
        <ele>299.83</ele>
        <time>2019-02-03T09:46:22Z</time>
      </trkpt>
      <trkpt lat="43.376260" lon="-3.803596">
        <ele>300.06</ele>
        <time>2019-02-03T09:46:26Z</time>
      </trkpt>
      <trkpt lat="43.376230" lon="-3.803717">
        <ele>300.10</ele>
        <time>2019-02-03T09:46:30Z</time>
      </trkpt>
      <trkpt lat="43.376198" lon="-3.803859">
        <ele>300.01</ele>
        <time>2019-02-03T09:46:34Z</time>
      </trkpt>
      <trkpt lat="43.376155" lon="-3.803973">
        <ele>299.81</ele>
        <time>2019-02-03T09:46:38Z</time>
      </trkpt>
      <trkpt lat="43.376089" lon="-3.804093">
        <ele>299.82</ele>
        <time>2019-02-03T09:46:42Z</time>
      </trkpt>
      <trkpt lat="43.376056" lon="-3.804220">
        <ele>299.86</ele>
        <time>2019-02-03T09:46:46Z</time>
      </trkpt>
      <trkpt lat="43.375998" lon="-3.804346">
        <ele>300.03</ele>
        <time>2019-02-03T09:46:50Z</time>
      </trkpt>
      <trkpt lat="43.375927" lon="-3.804449">
        <ele>299.45</ele>
        <time>2019-02-03T09:46:54Z</time>
      </trkpt>
      <trkpt lat="43.375871" lon="-3.804546">
        <ele>299.46</ele>
        <time>2019-02-03T09:46:57Z</time>
      </trkpt>
      <trkpt lat="43.375802" lon="-3.804641">
        <ele>299.25</ele>
        <time>2019-02-03T09:47:00Z</time>
      </trkpt>
      <trkpt lat="43.375744" lon="-3.804737">
        <ele>299.08</ele>
        <time>2019-02-03T09:47:03Z</time>
      </trkpt>
      <trkpt lat="43.375679" lon="-3.804835">
        <ele>299.04</ele>
        <time>2019-02-03T09:47:07Z</time>
      </trkpt>
      <trkpt lat="43.375623" lon="-3.804964">
        <ele>299.28</ele>
        <time>2019-02-03T09:47:11Z</time>
      </trkpt>
      <trkpt lat="43.375562" lon="-3.805087">
        <ele>299.46</ele>
        <time>2019-02-03T09:47:15Z</time>
      </trkpt>
      <trkpt lat="43.375489" lon="-3.805212">
        <ele>299.21</ele>
        <time>2019-02-03T09:47:19Z</time>
      </trkpt>
      <trkpt lat="43.375418" lon="-3.805337">
        <ele>299.21</ele>
        <time>2019-02-03T09:47:23Z</time>
      </trkpt>
      <trkpt lat="43.375351" lon="-3.805448">
        <ele>299.49</ele>
        <time>2019-02-03T09:47:27Z</time>
      </trkpt>
      <trkpt lat="43.375305" lon="-3.805564">
        <ele>299.47</ele>
        <time>2019-02-03T09:47:31Z</time>
      </trkpt>
      <trkpt lat="43.375260" lon="-3.805692">
        <ele>299.47</ele>
        <time>2019-02-03T09:47:35Z</time>
      </trkpt>
      <trkpt lat="43.375200" lon="-3.805795">
        <ele>299.50</ele>
        <time>2019-02-03T09:47:39Z</time>
      </trkpt>
      <trkpt lat="43.375140" lon="-3.805908">
        <ele>299.69</ele>
        <time>2019-02-03T09:47:43Z</time>
      </trkpt>
      <trkpt lat="43.375087" lon="-3.806013">
        <ele>299.43</ele>
        <time>2019-02-03T09:47:46Z</time>
      </trkpt>
      <trkpt lat="43.375026" lon="-3.806122">
        <ele>299.28</ele>
        <time>2019-02-03T09:47:50Z</time>
      </trkpt>
      <trkpt lat="43.374957" lon="-3.806202">
        <ele>299.44</ele>
        <time>2019-02-03T09:47:54Z</time>
      </trkpt>
      <trkpt lat="43.374883" lon="-3.806297">
        <ele>299.44</ele>
        <time>2019-02-03T09:47:58Z</time>
      </trkpt>
      <trkpt lat="43.374795" lon="-3.806371">
        <ele>299.68</ele>
        <time>2019-02-03T09:48:02Z</time>
      </trkpt>
      <trkpt lat="43.374714" lon="-3.806451">
        <ele>299.81</ele>
        <time>2019-02-03T09:48:06Z</time>
      </trkpt>
      <trkpt lat="43.374650" lon="-3.806557">
        <ele>299.83</ele>
        <time>2019-02-03T09:48:10Z</time>
      </trkpt>
      <trkpt lat="43.374572" lon="-3.806651">
        <ele>299.82</ele>
        <time>2019-02-03T09:48:14Z</time>
      </trkpt>
      <trkpt lat="43.374479" lon="-3.806730">
        <ele>300.09</ele>
        <time>2019-02-03T09:48:18Z</time>
      </trkpt>
      <trkpt lat="43.374399" lon="-3.806827">
        <ele>300.09</ele>
        <time>2019-02-03T09:48:22Z</time>
      </trkpt>
      <trkpt lat="43.374323" lon="-3.806920">
        <ele>300.23</ele>
        <time>2019-02-03T09:48:26Z</time>
      </trkpt>
      <trkpt lat="43.374251" lon="-3.807008">
        <ele>300.63</ele>
        <time>2019-02-03T09:48:30Z</time>
      </trkpt>
      <trkpt lat="43.374191" lon="-3.807116">
        <ele>300.65</ele>
        <time>2019-02-03T09:48:36Z</time>
      </trkpt>
      <trkpt lat="43.374178" lon="-3.807136">
        <ele>300.88</ele>
        <time>2019-02-03T09:48:38Z</time>
      </trkpt>
      <trkpt lat="43.374160" lon="-3.807129">
        <ele>300.87</ele>
        <time>2019-02-03T09:48:40Z</time>
      </trkpt>
      <trkpt lat="43.374140" lon="-3.807122">
        <ele>300.78</ele>
        <time>2019-02-03T09:48:42Z</time>
      </trkpt>
      <trkpt lat="43.374102" lon="-3.806989">
        <ele>323.45</ele>
        <time>2014-06-19T16:32:49Z</time>
      </trkpt>
      <trkpt lat="43.374066" lon="-3.806931">
        <ele>324.88</ele>
        <time>2014-06-19T16:32:54Z</time>
      </trkpt>
      <trkpt lat="43.374061" lon="-3.806899">
        <ele>325.49</ele>
        <time>2014-06-19T16:32:56Z</time>
      </trkpt>
      <trkpt lat="43.374040" lon="-3.806871">
        <ele>326.24</ele>
        <time>2014-06-19T16:32:59Z</time>
      </trkpt>
      <trkpt lat="43.374033" lon="-3.806842">
        <ele>327.04</ele>
        <time>2014-06-19T16:33:01Z</time>
      </trkpt>
      <trkpt lat="43.374036" lon="-3.806742">
        <ele>328.89</ele>
        <time>2014-06-19T16:33:07Z</time>
      </trkpt>
      <trkpt lat="43.374023" lon="-3.806712">
        <ele>329.67</ele>
        <time>2014-06-19T16:33:10Z</time>
      </trkpt>
      <trkpt lat="43.374025" lon="-3.806656">
        <ele>330.68</ele>
        <time>2014-06-19T16:33:13Z</time>
      </trkpt>
      <trkpt lat="43.374025" lon="-3.806584">
        <ele>332.01</ele>
        <time>2014-06-19T16:33:18Z</time>
      </trkpt>
      <trkpt lat="43.374016" lon="-3.806518">
        <ele>333.82</ele>
        <time>2014-06-19T16:33:24Z</time>
      </trkpt>
      <trkpt lat="43.374033" lon="-3.806489">
        <ele>335.43</ele>
        <time>2014-06-19T16:33:29Z</time>
      </trkpt>
      <trkpt lat="43.374054" lon="-3.806459">
        <ele>337.07</ele>
        <time>2014-06-19T16:33:34Z</time>
      </trkpt>
      <trkpt lat="43.374057" lon="-3.806439">
        <ele>338.48</ele>
        <time>2014-06-19T16:33:37Z</time>
      </trkpt>
      <trkpt lat="43.374055" lon="-3.806414">
        <ele>339.29</ele>
        <time>2014-06-19T16:33:40Z</time>
      </trkpt>
      <trkpt lat="43.374056" lon="-3.806384">
        <ele>340.10</ele>
        <time>2014-06-19T16:33:42Z</time>
      </trkpt>
      <trkpt lat="43.374047" lon="-3.806370">
        <ele>340.65</ele>
        <time>2014-06-19T16:33:44Z</time>
      </trkpt>
      <trkpt lat="43.374022" lon="-3.806316">
        <ele>342.28</ele>
        <time>2014-06-19T16:33:49Z</time>
      </trkpt>
      <trkpt lat="43.374021" lon="-3.806293">
        <ele>343.06</ele>
        <time>2014-06-19T16:33:51Z</time>
      </trkpt>
      <trkpt lat="43.374022" lon="-3.806280">
        <ele>343.23</ele>
        <time>2014-06-19T16:33:52Z</time>
      </trkpt>
      <trkpt lat="43.374031" lon="-3.806195">
        <ele>345.41</ele>
        <time>2014-06-19T16:33:58Z</time>
      </trkpt>
      <trkpt lat="43.374034" lon="-3.806096">
        <ele>348.02</ele>
        <time>2014-06-19T16:34:05Z</time>
      </trkpt>
      <trkpt lat="43.374024" lon="-3.806072">
        <ele>348.82</ele>
        <time>2014-06-19T16:34:07Z</time>
      </trkpt>
      <trkpt lat="43.374032" lon="-3.806033">
        <ele>350.08</ele>
        <time>2014-06-19T16:34:10Z</time>
      </trkpt>
      <trkpt lat="43.374045" lon="-3.805992">
        <ele>351.63</ele>
        <time>2014-06-19T16:34:14Z</time>
      </trkpt>
      <trkpt lat="43.374035" lon="-3.805956">
        <ele>353.05</ele>
        <time>2014-06-19T16:34:18Z</time>
      </trkpt>
      <trkpt lat="43.374026" lon="-3.805913">
        <ele>354.49</ele>
        <time>2014-06-19T16:34:22Z</time>
      </trkpt>
      <trkpt lat="43.374032" lon="-3.805870">
        <ele>356.49</ele>
        <time>2014-06-19T16:34:27Z</time>
      </trkpt>
      <trkpt lat="43.374032" lon="-3.805830">
        <ele>358.01</ele>
        <time>2014-06-19T16:34:31Z</time>
      </trkpt>
      <trkpt lat="43.374027" lon="-3.805813">
        <ele>358.82</ele>
        <time>2014-06-19T16:34:33Z</time>
      </trkpt>
      <trkpt lat="43.374010" lon="-3.805785">
        <ele>360.05</ele>
        <time>2014-06-19T16:34:36Z</time>
      </trkpt>
      <trkpt lat="43.374008" lon="-3.805754">
        <ele>360.81</ele>
        <time>2014-06-19T16:34:38Z</time>
      </trkpt>
      <trkpt lat="43.373989" lon="-3.805707">
        <ele>362.61</ele>
        <time>2014-06-19T16:34:43Z</time>
      </trkpt>
      <trkpt lat="43.373984" lon="-3.805627">
        <ele>365.08</ele>
        <time>2014-06-19T16:34:49Z</time>
      </trkpt>
      <trkpt lat="43.374011" lon="-3.805557">
        <ele>367.24</ele>
        <time>2014-06-19T16:34:55Z</time>
      </trkpt>
      <trkpt lat="43.373997" lon="-3.805508">
        <ele>368.46</ele>
        <time>2014-06-19T16:34:59Z</time>
      </trkpt>
      <trkpt lat="43.374007" lon="-3.805484">
        <ele>369.05</ele>
        <time>2014-06-19T16:35:01Z</time>
      </trkpt>
      <trkpt lat="43.374016" lon="-3.805473">
        <ele>369.50</ele>
        <time>2014-06-19T16:35:02Z</time>
      </trkpt>
      <trkpt lat="43.374006" lon="-3.805389">
        <ele>371.50</ele>
        <time>2014-06-19T16:35:09Z</time>
      </trkpt>
      <trkpt lat="43.373964" lon="-3.805365">
        <ele>373.04</ele>
        <time>2014-06-19T16:35:14Z</time>
      </trkpt>
      <trkpt lat="43.373969" lon="-3.805341">
        <ele>373.50</ele>
        <time>2014-06-19T16:35:16Z</time>
      </trkpt>
      <trkpt lat="43.373974" lon="-3.805311">
        <ele>374.08</ele>
        <time>2014-06-19T16:35:18Z</time>
      </trkpt>
      <trkpt lat="43.373971" lon="-3.805233">
        <ele>375.41</ele>
        <time>2014-06-19T16:35:24Z</time>
      </trkpt>
      <trkpt lat="43.373970" lon="-3.805163">
        <ele>376.61</ele>
        <time>2014-06-19T16:35:28Z</time>
      </trkpt>
      <trkpt lat="43.373976" lon="-3.805066">
        <ele>377.61</ele>
        <time>2014-06-19T16:35:34Z</time>
      </trkpt>
      <trkpt lat="43.373974" lon="-3.805033">
        <ele>378.07</ele>
        <time>2014-06-19T16:35:36Z</time>
      </trkpt>
      <trkpt lat="43.373975" lon="-3.804967">
        <ele>379.08</ele>
        <time>2014-06-19T16:35:40Z</time>
      </trkpt>
      <trkpt lat="43.373975" lon="-3.804898">
        <ele>379.68</ele>
        <time>2014-06-19T16:35:44Z</time>
      </trkpt>
      <trkpt lat="43.373980" lon="-3.804778">
        <ele>380.84</ele>
        <time>2014-06-19T16:35:50Z</time>
      </trkpt>
      <trkpt lat="43.373983" lon="-3.804666">
        <ele>381.66</ele>
        <time>2014-06-19T16:35:55Z</time>
      </trkpt>
      <trkpt lat="43.373999" lon="-3.804522">
        <ele>383.04</ele>
        <time>2014-06-19T16:36:04Z</time>
      </trkpt>
      <trkpt lat="43.373993" lon="-3.804478">
        <ele>383.27</ele>
        <time>2014-06-19T16:36:06Z</time>
      </trkpt>
      <trkpt lat="43.373993" lon="-3.804454">
        <ele>383.49</ele>
        <time>2014-06-19T16:36:07Z</time>
      </trkpt>
      <trkpt lat="43.374024" lon="-3.804386">
        <ele>383.81</ele>
        <time>2014-06-19T16:36:11Z</time>
      </trkpt>
      <trkpt lat="43.374029" lon="-3.804370">
        <ele>383.83</ele>
        <time>2014-06-19T16:36:12Z</time>
      </trkpt>
      <trkpt lat="43.374035" lon="-3.804358">
        <ele>383.81</ele>
        <time>2014-06-19T16:36:13Z</time>
      </trkpt>
      <trkpt lat="43.374050" lon="-3.804247">
        <ele>383.90</ele>
        <time>2014-06-19T16:36:19Z</time>
      </trkpt>
      <trkpt lat="43.374044" lon="-3.804223">
        <ele>383.88</ele>
        <time>2014-06-19T16:36:20Z</time>
      </trkpt>
      <trkpt lat="43.374045" lon="-3.804092">
        <ele>383.83</ele>
        <time>2014-06-19T16:36:26Z</time>
      </trkpt>
      <trkpt lat="43.374047" lon="-3.804069">
        <ele>383.88</ele>
        <time>2014-06-19T16:36:27Z</time>
      </trkpt>
      <trkpt lat="43.374066" lon="-3.803953">
        <ele>383.88</ele>
        <time>2014-06-19T16:36:32Z</time>
      </trkpt>
      <trkpt lat="43.374066" lon="-3.803933">
        <ele>383.89</ele>
        <time>2014-06-19T16:36:33Z</time>
      </trkpt>
      <trkpt lat="43.374108" lon="-3.803842">
        <ele>383.81</ele>
        <time>2014-06-19T16:36:38Z</time>
      </trkpt>
      <trkpt lat="43.374116" lon="-3.803824">
        <ele>383.84</ele>
        <time>2014-06-19T16:36:39Z</time>
      </trkpt>
      <trkpt lat="43.374133" lon="-3.803792">
        <ele>383.81</ele>
        <time>2014-06-19T16:36:48Z</time>
      </trkpt>
      <trkpt lat="43.374132" lon="-3.803810">
        <ele>383.81</ele>
        <time>2014-06-19T16:36:53Z</time>
      </trkpt>
      <trkpt lat="43.374130" lon="-3.803817">
        <ele>383.83</ele>
        <time>2014-06-19T16:36:58Z</time>
      </trkpt>
      <trkpt lat="43.374126" lon="-3.803818">
        <ele>383.63</ele>
        <time>2014-06-19T16:37:07Z</time>
      </trkpt>
      <trkpt lat="43.374141" lon="-3.803770">
        <ele>383.63</ele>
        <time>2014-06-19T16:37:11Z</time>
      </trkpt>
      <trkpt lat="43.374143" lon="-3.803769">
        <ele>383.66</ele>
        <time>2014-06-19T16:37:12Z</time>
      </trkpt>
      <trkpt lat="43.374131" lon="-3.803773">
        <ele>383.23</ele>
        <time>2014-06-19T16:37:19Z</time>
      </trkpt>
      <trkpt lat="43.374142" lon="-3.803749">
        <ele>382.26</ele>
        <time>2014-06-19T16:37:26Z</time>
      </trkpt>
      <trkpt lat="43.374152" lon="-3.803704">
        <ele>381.69</ele>
        <time>2014-06-19T16:37:30Z</time>
      </trkpt>
      <trkpt lat="43.374176" lon="-3.803694">
        <ele>381.66</ele>
        <time>2014-06-19T16:37:32Z</time>
      </trkpt>
      <trkpt lat="43.374205" lon="-3.803604">
        <ele>381.50</ele>
        <time>2014-06-19T16:37:38Z</time>
      </trkpt>
      <trkpt lat="43.374203" lon="-3.803521">
        <ele>381.01</ele>
        <time>2014-06-19T16:37:42Z</time>
      </trkpt>
      <trkpt lat="43.374213" lon="-3.803509">
        <ele>381.02</ele>
        <time>2014-06-19T16:37:43Z</time>
      </trkpt>
      <trkpt lat="43.374247" lon="-3.803418">
        <ele>380.41</ele>
        <time>2014-06-19T16:37:48Z</time>
      </trkpt>
      <trkpt lat="43.374295" lon="-3.803248">
        <ele>379.82</ele>
        <time>2014-06-19T16:37:53Z</time>
      </trkpt>
      <trkpt lat="43.374355" lon="-3.803071">
        <ele>379.89</ele>
        <time>2014-06-19T16:37:58Z</time>
      </trkpt>
      <trkpt lat="43.374409" lon="-3.802832">
        <ele>379.88</ele>
        <time>2014-06-19T16:38:04Z</time>
      </trkpt>
      <trkpt lat="43.374434" lon="-3.802636">
        <ele>379.83</ele>
        <time>2014-06-19T16:38:09Z</time>
      </trkpt>
      <trkpt lat="43.374479" lon="-3.802398">
        <ele>379.65</ele>
        <time>2014-06-19T16:38:15Z</time>
      </trkpt>
      <trkpt lat="43.374485" lon="-3.802187">
        <ele>379.41</ele>
        <time>2014-06-19T16:38:20Z</time>
      </trkpt>
      <trkpt lat="43.374497" lon="-3.801906">
        <ele>379.29</ele>
        <time>2014-06-19T16:38:26Z</time>
      </trkpt>
      <trkpt lat="43.374510" lon="-3.801820">
        <ele>379.04</ele>
        <time>2014-06-19T16:38:28Z</time>
      </trkpt>
      <trkpt lat="43.374529" lon="-3.801736">
        <ele>379.03</ele>
        <time>2014-06-19T16:38:30Z</time>
      </trkpt>
      <trkpt lat="43.374570" lon="-3.801593">
        <ele>378.42</ele>
        <time>2014-06-19T16:38:34Z</time>
      </trkpt>
      <trkpt lat="43.374628" lon="-3.801327">
        <ele>377.30</ele>
        <time>2014-06-19T16:38:40Z</time>
      </trkpt>
      <trkpt lat="43.374666" lon="-3.801058">
        <ele>376.88</ele>
        <time>2014-06-19T16:38:46Z</time>
      </trkpt>
      <trkpt lat="43.374674" lon="-3.800824">
        <ele>376.23</ele>
        <time>2014-06-19T16:38:51Z</time>
      </trkpt>
      <trkpt lat="43.374744" lon="-3.800544">
        <ele>375.63</ele>
        <time>2014-06-19T16:38:58Z</time>
      </trkpt>
      <trkpt lat="43.374802" lon="-3.800457">
        <ele>375.65</ele>
        <time>2014-06-19T16:39:01Z</time>
      </trkpt>
      <trkpt lat="43.374883" lon="-3.800287">
        <ele>375.68</ele>
        <time>2014-06-19T16:39:06Z</time>
      </trkpt>
      <trkpt lat="43.374939" lon="-3.800106">
        <ele>375.67</ele>
        <time>2014-06-19T16:39:11Z</time>
      </trkpt>
      <trkpt lat="43.375008" lon="-3.799916">
        <ele>375.65</ele>
        <time>2014-06-19T16:39:17Z</time>
      </trkpt>
      <trkpt lat="43.375071" lon="-3.799717">
        <ele>375.61</ele>
        <time>2014-06-19T16:39:23Z</time>
      </trkpt>
      <trkpt lat="43.375129" lon="-3.799549">
        <ele>375.62</ele>
        <time>2014-06-19T16:39:31Z</time>
      </trkpt>
      <trkpt lat="43.375160" lon="-3.799479">
        <ele>375.70</ele>
        <time>2014-06-19T16:39:37Z</time>
      </trkpt>
      <trkpt lat="43.375190" lon="-3.799438">
        <ele>375.62</ele>
        <time>2014-06-19T16:39:41Z</time>
      </trkpt>
      <trkpt lat="43.375238" lon="-3.799386">
        <ele>375.66</ele>
        <time>2014-06-19T16:39:47Z</time>
      </trkpt>
      <trkpt lat="43.375246" lon="-3.799379">
        <ele>375.65</ele>
        <time>2014-06-19T16:39:48Z</time>
      </trkpt>
      <trkpt lat="43.375315" lon="-3.799326">
        <ele>375.68</ele>
        <time>2014-06-19T16:39:54Z</time>
      </trkpt>
      <trkpt lat="43.375342" lon="-3.799263">
        <ele>375.68</ele>
        <time>2014-06-19T16:39:56Z</time>
      </trkpt>
      <trkpt lat="43.375417" lon="-3.799003">
        <ele>375.63</ele>
        <time>2014-06-19T16:40:02Z</time>
      </trkpt>
      <trkpt lat="43.375455" lon="-3.798846">
        <ele>375.65</ele>
        <time>2014-06-19T16:40:06Z</time>
      </trkpt>
      <trkpt lat="43.375533" lon="-3.798667">
        <ele>375.66</ele>
        <time>2014-06-19T16:40:11Z</time>
      </trkpt>
      <trkpt lat="43.375614" lon="-3.798466">
        <ele>375.61</ele>
        <time>2014-06-19T16:40:16Z</time>
      </trkpt>
      <trkpt lat="43.375678" lon="-3.798236">
        <ele>375.62</ele>
        <time>2014-06-19T16:40:21Z</time>
      </trkpt>
      <trkpt lat="43.375734" lon="-3.798088">
        <ele>375.62</ele>
        <time>2014-06-19T16:40:25Z</time>
      </trkpt>
      <trkpt lat="43.375778" lon="-3.797953">
        <ele>375.64</ele>
        <time>2014-06-19T16:40:29Z</time>
      </trkpt>
      <trkpt lat="43.375823" lon="-3.797843">
        <ele>375.69</ele>
        <time>2014-06-19T16:40:37Z</time>
      </trkpt>
      <trkpt lat="43.375870" lon="-3.797718">
        <ele>375.62</ele>
        <time>2014-06-19T16:40:42Z</time>
      </trkpt>
      <trkpt lat="43.375946" lon="-3.797551">
        <ele>375.66</ele>
        <time>2014-06-19T16:40:47Z</time>
      </trkpt>
      <trkpt lat="43.376008" lon="-3.797388">
        <ele>375.68</ele>
        <time>2014-06-19T16:40:51Z</time>
      </trkpt>
      <trkpt lat="43.376074" lon="-3.797236">
        <ele>375.67</ele>
        <time>2014-06-19T16:40:55Z</time>
      </trkpt>
      <trkpt lat="43.376145" lon="-3.797000">
        <ele>375.69</ele>
        <time>2014-06-19T16:41:00Z</time>
      </trkpt>
      <trkpt lat="43.376214" lon="-3.796772">
        <ele>375.42</ele>
        <time>2014-06-19T16:41:05Z</time>
      </trkpt>
      <trkpt lat="43.376240" lon="-3.796605">
        <ele>375.41</ele>
        <time>2014-06-19T16:41:09Z</time>
      </trkpt>
      <trkpt lat="43.376262" lon="-3.796370">
        <ele>375.22</ele>
        <time>2014-06-19T16:41:14Z</time>
      </trkpt>
      <trkpt lat="43.376305" lon="-3.796133">
        <ele>375.01</ele>
        <time>2014-06-19T16:41:19Z</time>
      </trkpt>
    </trkseg>
  </trk>
</gpx>
